<?xml version="1.0" encoding="UTF-8" standalone="no" ?>
<gpx xmlns="http://www.topografix.com/GPX/1/1" xmlns:xsi="http://www.w3.org/2001/XMLSchema-instance" xsi:schemaLocation="http://www.topografix.com/GPX/1/1 http://www.topografix.com/GPX/1/1/gpx.xsd" version="1.1" creator="VisuGPX - https://www.visugpx.com">
  <metadata>
    <name>Rando - Tour avec de la neige.</name>
    <desc><![CDATA[Un tour très sympa avec de très beaux points de vue. La neige était bien présente.]]></desc>
  </metadata>
  <trk>
    <name><![CDATA[05-DEC-21 11:21:06]]></name>
    <trkseg>
      <trkpt lat="44.82306" lon="5.11009">
        <ele>875.9</ele>
        <time>2021-12-05T07:56:29Z</time>
      </trkpt>
      <trkpt lat="44.82306" lon="5.11009">
        <ele>875.9</ele>
        <time>2021-12-05T07:56:33Z</time>
      </trkpt>
      <trkpt lat="44.82306" lon="5.11009">
        <ele>871.57</ele>
        <time>2021-12-05T07:56:36Z</time>
      </trkpt>
      <trkpt lat="44.82306" lon="5.11009">
        <ele>878.3</ele>
        <time>2021-12-05T07:56:37Z</time>
      </trkpt>
      <trkpt lat="44.82306" lon="5.11009">
        <ele>874.94</ele>
        <time>2021-12-05T07:56:38Z</time>
      </trkpt>
      <trkpt lat="44.82304" lon="5.11012">
        <ele>873.5</ele>
        <time>2021-12-05T07:56:51Z</time>
      </trkpt>
      <trkpt lat="44.82303" lon="5.11013">
        <ele>877.82</ele>
        <time>2021-12-05T07:56:52Z</time>
      </trkpt>
      <trkpt lat="44.82303" lon="5.11013">
        <ele>875.42</ele>
        <time>2021-12-05T07:56:53Z</time>
      </trkpt>
      <trkpt lat="44.823" lon="5.11017">
        <ele>874.94</ele>
        <time>2021-12-05T07:57:02Z</time>
      </trkpt>
      <trkpt lat="44.82295" lon="5.11027">
        <ele>870.13</ele>
        <time>2021-12-05T07:57:09Z</time>
      </trkpt>
      <trkpt lat="44.82294" lon="5.11027">
        <ele>878.78</ele>
        <time>2021-12-05T07:57:10Z</time>
      </trkpt>
      <trkpt lat="44.82293" lon="5.11028">
        <ele>875.42</ele>
        <time>2021-12-05T07:57:11Z</time>
      </trkpt>
      <trkpt lat="44.82286" lon="5.11041">
        <ele>875.42</ele>
        <time>2021-12-05T07:57:25Z</time>
      </trkpt>
      <trkpt lat="44.82281" lon="5.11046">
        <ele>875.42</ele>
        <time>2021-12-05T07:57:31Z</time>
      </trkpt>
      <trkpt lat="44.8228" lon="5.11049">
        <ele>874.94</ele>
        <time>2021-12-05T07:57:34Z</time>
      </trkpt>
      <trkpt lat="44.82277" lon="5.11052">
        <ele>876.38</ele>
        <time>2021-12-05T07:57:37Z</time>
      </trkpt>
      <trkpt lat="44.82273" lon="5.11059">
        <ele>876.38</ele>
        <time>2021-12-05T07:57:44Z</time>
      </trkpt>
      <trkpt lat="44.82268" lon="5.11068">
        <ele>876.86</ele>
        <time>2021-12-05T07:57:59Z</time>
      </trkpt>
      <trkpt lat="44.82268" lon="5.11071">
        <ele>876.38</ele>
        <time>2021-12-05T07:58:07Z</time>
      </trkpt>
      <trkpt lat="44.82266" lon="5.11074">
        <ele>876.86</ele>
        <time>2021-12-05T07:58:09Z</time>
      </trkpt>
      <trkpt lat="44.82258" lon="5.11086">
        <ele>877.34</ele>
        <time>2021-12-05T07:58:20Z</time>
      </trkpt>
      <trkpt lat="44.82243" lon="5.11098">
        <ele>877.34</ele>
        <time>2021-12-05T07:58:34Z</time>
      </trkpt>
      <trkpt lat="44.82242" lon="5.11098">
        <ele>877.34</ele>
        <time>2021-12-05T07:58:35Z</time>
      </trkpt>
      <trkpt lat="44.82215" lon="5.11109">
        <ele>876.86</ele>
        <time>2021-12-05T07:58:55Z</time>
      </trkpt>
      <trkpt lat="44.82198" lon="5.11114">
        <ele>876.38</ele>
        <time>2021-12-05T07:59:11Z</time>
      </trkpt>
      <trkpt lat="44.82176" lon="5.11132">
        <ele>876.86</ele>
        <time>2021-12-05T07:59:29Z</time>
      </trkpt>
      <trkpt lat="44.82162" lon="5.11154">
        <ele>879.26</ele>
        <time>2021-12-05T07:59:47Z</time>
      </trkpt>
      <trkpt lat="44.82151" lon="5.11175">
        <ele>881.67</ele>
        <time>2021-12-05T08:00:06Z</time>
      </trkpt>
      <trkpt lat="44.82147" lon="5.11184">
        <ele>882.63</ele>
        <time>2021-12-05T08:00:23Z</time>
      </trkpt>
      <trkpt lat="44.82141" lon="5.11192">
        <ele>884.55</ele>
        <time>2021-12-05T08:00:40Z</time>
      </trkpt>
      <trkpt lat="44.8213" lon="5.11212">
        <ele>885.99</ele>
        <time>2021-12-05T08:00:52Z</time>
      </trkpt>
      <trkpt lat="44.82118" lon="5.11222">
        <ele>885.51</ele>
        <time>2021-12-05T08:01:05Z</time>
      </trkpt>
      <trkpt lat="44.82115" lon="5.1122">
        <ele>885.51</ele>
        <time>2021-12-05T08:01:10Z</time>
      </trkpt>
      <trkpt lat="44.82108" lon="5.11226">
        <ele>885.03</ele>
        <time>2021-12-05T08:01:21Z</time>
      </trkpt>
      <trkpt lat="44.82108" lon="5.11226">
        <ele>884.55</ele>
        <time>2021-12-05T08:01:43Z</time>
      </trkpt>
      <trkpt lat="44.82108" lon="5.11225">
        <ele>884.07</ele>
        <time>2021-12-05T08:02:11Z</time>
      </trkpt>
      <trkpt lat="44.82108" lon="5.11226">
        <ele>883.11</ele>
        <time>2021-12-05T08:02:39Z</time>
      </trkpt>
      <trkpt lat="44.82108" lon="5.11226">
        <ele>882.63</ele>
        <time>2021-12-05T08:03:10Z</time>
      </trkpt>
      <trkpt lat="44.82108" lon="5.11226">
        <ele>881.67</ele>
        <time>2021-12-05T08:03:40Z</time>
      </trkpt>
      <trkpt lat="44.82108" lon="5.11225">
        <ele>881.19</ele>
        <time>2021-12-05T08:04:08Z</time>
      </trkpt>
      <trkpt lat="44.82107" lon="5.11225">
        <ele>881.19</ele>
        <time>2021-12-05T08:04:35Z</time>
      </trkpt>
      <trkpt lat="44.82104" lon="5.11228">
        <ele>880.22</ele>
        <time>2021-12-05T08:04:47Z</time>
      </trkpt>
      <trkpt lat="44.82104" lon="5.11228">
        <ele>880.71</ele>
        <time>2021-12-05T08:04:57Z</time>
      </trkpt>
      <trkpt lat="44.82106" lon="5.11232">
        <ele>880.71</ele>
        <time>2021-12-05T08:05:10Z</time>
      </trkpt>
      <trkpt lat="44.82106" lon="5.11233">
        <ele>879.74</ele>
        <time>2021-12-05T08:05:25Z</time>
      </trkpt>
      <trkpt lat="44.82106" lon="5.11233">
        <ele>879.26</ele>
        <time>2021-12-05T08:05:53Z</time>
      </trkpt>
      <trkpt lat="44.82106" lon="5.11233">
        <ele>879.26</ele>
        <time>2021-12-05T08:06:17Z</time>
      </trkpt>
      <trkpt lat="44.82106" lon="5.11233">
        <ele>878.78</ele>
        <time>2021-12-05T08:06:41Z</time>
      </trkpt>
      <trkpt lat="44.82106" lon="5.11233">
        <ele>878.3</ele>
        <time>2021-12-05T08:07:08Z</time>
      </trkpt>
      <trkpt lat="44.82104" lon="5.11233">
        <ele>878.3</ele>
        <time>2021-12-05T08:07:15Z</time>
      </trkpt>
      <trkpt lat="44.82091" lon="5.11234">
        <ele>877.82</ele>
        <time>2021-12-05T08:07:25Z</time>
      </trkpt>
      <trkpt lat="44.8208" lon="5.11237">
        <ele>876.38</ele>
        <time>2021-12-05T08:07:35Z</time>
      </trkpt>
      <trkpt lat="44.82074" lon="5.11234">
        <ele>876.38</ele>
        <time>2021-12-05T08:07:42Z</time>
      </trkpt>
      <trkpt lat="44.82068" lon="5.11233">
        <ele>875.42</ele>
        <time>2021-12-05T08:07:49Z</time>
      </trkpt>
      <trkpt lat="44.82054" lon="5.11239">
        <ele>873.98</ele>
        <time>2021-12-05T08:08:03Z</time>
      </trkpt>
      <trkpt lat="44.82046" lon="5.11245">
        <ele>873.01</ele>
        <time>2021-12-05T08:08:18Z</time>
      </trkpt>
      <trkpt lat="44.82046" lon="5.11245">
        <ele>873.01</ele>
        <time>2021-12-05T08:08:20Z</time>
      </trkpt>
      <trkpt lat="44.82036" lon="5.1125">
        <ele>872.53</ele>
        <time>2021-12-05T08:08:33Z</time>
      </trkpt>
      <trkpt lat="44.82027" lon="5.11253">
        <ele>871.57</ele>
        <time>2021-12-05T08:08:47Z</time>
      </trkpt>
      <trkpt lat="44.8202" lon="5.11257">
        <ele>871.57</ele>
        <time>2021-12-05T08:08:58Z</time>
      </trkpt>
      <trkpt lat="44.82024" lon="5.11258">
        <ele>871.57</ele>
        <time>2021-12-05T08:09:11Z</time>
      </trkpt>
      <trkpt lat="44.82025" lon="5.11258">
        <ele>871.57</ele>
        <time>2021-12-05T08:09:15Z</time>
      </trkpt>
      <trkpt lat="44.82033" lon="5.11261">
        <ele>872.05</ele>
        <time>2021-12-05T08:09:27Z</time>
      </trkpt>
      <trkpt lat="44.82038" lon="5.11257">
        <ele>871.57</ele>
        <time>2021-12-05T08:09:42Z</time>
      </trkpt>
      <trkpt lat="44.82043" lon="5.11255">
        <ele>872.05</ele>
        <time>2021-12-05T08:09:49Z</time>
      </trkpt>
      <trkpt lat="44.82034" lon="5.11258">
        <ele>871.57</ele>
        <time>2021-12-05T08:09:59Z</time>
      </trkpt>
      <trkpt lat="44.82025" lon="5.11259">
        <ele>870.61</ele>
        <time>2021-12-05T08:10:10Z</time>
      </trkpt>
      <trkpt lat="44.82019" lon="5.11265">
        <ele>870.13</ele>
        <time>2021-12-05T08:10:22Z</time>
      </trkpt>
      <trkpt lat="44.82016" lon="5.11265">
        <ele>869.65</ele>
        <time>2021-12-05T08:10:35Z</time>
      </trkpt>
      <trkpt lat="44.82016" lon="5.11265">
        <ele>869.65</ele>
        <time>2021-12-05T08:11:05Z</time>
      </trkpt>
      <trkpt lat="44.82015" lon="5.11265">
        <ele>868.69</ele>
        <time>2021-12-05T08:11:28Z</time>
      </trkpt>
      <trkpt lat="44.82015" lon="5.11264">
        <ele>868.21</ele>
        <time>2021-12-05T08:11:50Z</time>
      </trkpt>
      <trkpt lat="44.82015" lon="5.11264">
        <ele>868.21</ele>
        <time>2021-12-05T08:12:15Z</time>
      </trkpt>
      <trkpt lat="44.82012" lon="5.11266">
        <ele>868.21</ele>
        <time>2021-12-05T08:12:28Z</time>
      </trkpt>
      <trkpt lat="44.81998" lon="5.11264">
        <ele>867.73</ele>
        <time>2021-12-05T08:12:41Z</time>
      </trkpt>
      <trkpt lat="44.81983" lon="5.11267">
        <ele>866.77</ele>
        <time>2021-12-05T08:12:53Z</time>
      </trkpt>
      <trkpt lat="44.81971" lon="5.1127">
        <ele>865.8</ele>
        <time>2021-12-05T08:13:07Z</time>
      </trkpt>
      <trkpt lat="44.81959" lon="5.11274">
        <ele>864.36</ele>
        <time>2021-12-05T08:13:20Z</time>
      </trkpt>
      <trkpt lat="44.81957" lon="5.11274">
        <ele>864.84</ele>
        <time>2021-12-05T08:13:22Z</time>
      </trkpt>
      <trkpt lat="44.81948" lon="5.11273">
        <ele>863.88</ele>
        <time>2021-12-05T08:13:31Z</time>
      </trkpt>
      <trkpt lat="44.81936" lon="5.11278">
        <ele>863.4</ele>
        <time>2021-12-05T08:13:45Z</time>
      </trkpt>
      <trkpt lat="44.81921" lon="5.11296">
        <ele>861.48</ele>
        <time>2021-12-05T08:14:04Z</time>
      </trkpt>
      <trkpt lat="44.81912" lon="5.11303">
        <ele>861.48</ele>
        <time>2021-12-05T08:14:15Z</time>
      </trkpt>
      <trkpt lat="44.81901" lon="5.11312">
        <ele>859.56</ele>
        <time>2021-12-05T08:14:27Z</time>
      </trkpt>
      <trkpt lat="44.81895" lon="5.11314">
        <ele>859.56</ele>
        <time>2021-12-05T08:14:41Z</time>
      </trkpt>
      <trkpt lat="44.81895" lon="5.11314">
        <ele>860.04</ele>
        <time>2021-12-05T08:15:05Z</time>
      </trkpt>
      <trkpt lat="44.81893" lon="5.11313">
        <ele>859.56</ele>
        <time>2021-12-05T08:15:25Z</time>
      </trkpt>
      <trkpt lat="44.81884" lon="5.11307">
        <ele>859.08</ele>
        <time>2021-12-05T08:15:37Z</time>
      </trkpt>
      <trkpt lat="44.81871" lon="5.11304">
        <ele>857.15</ele>
        <time>2021-12-05T08:15:49Z</time>
      </trkpt>
      <trkpt lat="44.81852" lon="5.11313">
        <ele>856.67</ele>
        <time>2021-12-05T08:16:03Z</time>
      </trkpt>
      <trkpt lat="44.81837" lon="5.11319">
        <ele>855.23</ele>
        <time>2021-12-05T08:16:16Z</time>
      </trkpt>
      <trkpt lat="44.81831" lon="5.11323">
        <ele>854.75</ele>
        <time>2021-12-05T08:16:30Z</time>
      </trkpt>
      <trkpt lat="44.81829" lon="5.11323">
        <ele>854.27</ele>
        <time>2021-12-05T08:16:48Z</time>
      </trkpt>
      <trkpt lat="44.81823" lon="5.11325">
        <ele>853.31</ele>
        <time>2021-12-05T08:17:02Z</time>
      </trkpt>
      <trkpt lat="44.81818" lon="5.11326">
        <ele>853.31</ele>
        <time>2021-12-05T08:17:19Z</time>
      </trkpt>
      <trkpt lat="44.81818" lon="5.11326">
        <ele>853.31</ele>
        <time>2021-12-05T08:17:44Z</time>
      </trkpt>
      <trkpt lat="44.81817" lon="5.11326">
        <ele>852.35</ele>
        <time>2021-12-05T08:18:02Z</time>
      </trkpt>
      <trkpt lat="44.81812" lon="5.11329">
        <ele>852.35</ele>
        <time>2021-12-05T08:18:16Z</time>
      </trkpt>
      <trkpt lat="44.81809" lon="5.11331">
        <ele>851.87</ele>
        <time>2021-12-05T08:18:30Z</time>
      </trkpt>
      <trkpt lat="44.81801" lon="5.11336">
        <ele>850.9</ele>
        <time>2021-12-05T08:18:42Z</time>
      </trkpt>
      <trkpt lat="44.81797" lon="5.11337">
        <ele>850.42</ele>
        <time>2021-12-05T08:18:49Z</time>
      </trkpt>
      <trkpt lat="44.81781" lon="5.11342">
        <ele>849.94</ele>
        <time>2021-12-05T08:19:01Z</time>
      </trkpt>
      <trkpt lat="44.81772" lon="5.11351">
        <ele>849.46</ele>
        <time>2021-12-05T08:19:10Z</time>
      </trkpt>
      <trkpt lat="44.81758" lon="5.11364">
        <ele>848.98</ele>
        <time>2021-12-05T08:19:24Z</time>
      </trkpt>
      <trkpt lat="44.81748" lon="5.11374">
        <ele>849.46</ele>
        <time>2021-12-05T08:19:36Z</time>
      </trkpt>
      <trkpt lat="44.81743" lon="5.11383">
        <ele>849.46</ele>
        <time>2021-12-05T08:19:51Z</time>
      </trkpt>
      <trkpt lat="44.8174" lon="5.11386">
        <ele>849.46</ele>
        <time>2021-12-05T08:20:12Z</time>
      </trkpt>
      <trkpt lat="44.81727" lon="5.11398">
        <ele>849.46</ele>
        <time>2021-12-05T08:20:26Z</time>
      </trkpt>
      <trkpt lat="44.81724" lon="5.11402">
        <ele>849.94</ele>
        <time>2021-12-05T08:20:29Z</time>
      </trkpt>
      <trkpt lat="44.81711" lon="5.1142">
        <ele>849.46</ele>
        <time>2021-12-05T08:20:44Z</time>
      </trkpt>
      <trkpt lat="44.81705" lon="5.11425">
        <ele>848.98</ele>
        <time>2021-12-05T08:20:50Z</time>
      </trkpt>
      <trkpt lat="44.817" lon="5.11429">
        <ele>848.5</ele>
        <time>2021-12-05T08:20:56Z</time>
      </trkpt>
      <trkpt lat="44.8169" lon="5.11444">
        <ele>848.5</ele>
        <time>2021-12-05T08:21:08Z</time>
      </trkpt>
      <trkpt lat="44.8169" lon="5.11445">
        <ele>848.5</ele>
        <time>2021-12-05T08:21:09Z</time>
      </trkpt>
      <trkpt lat="44.81682" lon="5.11447">
        <ele>848.5</ele>
        <time>2021-12-05T08:21:18Z</time>
      </trkpt>
      <trkpt lat="44.8167" lon="5.11449">
        <ele>848.02</ele>
        <time>2021-12-05T08:21:29Z</time>
      </trkpt>
      <trkpt lat="44.81657" lon="5.11452">
        <ele>847.06</ele>
        <time>2021-12-05T08:21:41Z</time>
      </trkpt>
      <trkpt lat="44.81647" lon="5.11452">
        <ele>847.06</ele>
        <time>2021-12-05T08:21:51Z</time>
      </trkpt>
      <trkpt lat="44.81637" lon="5.11454">
        <ele>846.58</ele>
        <time>2021-12-05T08:22:01Z</time>
      </trkpt>
      <trkpt lat="44.81634" lon="5.11453">
        <ele>845.62</ele>
        <time>2021-12-05T08:22:04Z</time>
      </trkpt>
      <trkpt lat="44.81621" lon="5.11457">
        <ele>845.14</ele>
        <time>2021-12-05T08:22:16Z</time>
      </trkpt>
      <trkpt lat="44.81619" lon="5.11457">
        <ele>844.66</ele>
        <time>2021-12-05T08:22:18Z</time>
      </trkpt>
      <trkpt lat="44.81615" lon="5.11459">
        <ele>844.66</ele>
        <time>2021-12-05T08:22:21Z</time>
      </trkpt>
      <trkpt lat="44.81606" lon="5.11463">
        <ele>844.18</ele>
        <time>2021-12-05T08:22:30Z</time>
      </trkpt>
      <trkpt lat="44.81593" lon="5.11467">
        <ele>843.69</ele>
        <time>2021-12-05T08:22:41Z</time>
      </trkpt>
      <trkpt lat="44.81587" lon="5.11472">
        <ele>844.18</ele>
        <time>2021-12-05T08:22:51Z</time>
      </trkpt>
      <trkpt lat="44.81584" lon="5.11476">
        <ele>842.25</ele>
        <time>2021-12-05T08:23:03Z</time>
      </trkpt>
      <trkpt lat="44.81584" lon="5.11476">
        <ele>850.42</ele>
        <time>2021-12-05T08:23:04Z</time>
      </trkpt>
      <trkpt lat="44.81584" lon="5.11476">
        <ele>842.73</ele>
        <time>2021-12-05T08:23:05Z</time>
      </trkpt>
      <trkpt lat="44.81584" lon="5.11476">
        <ele>839.37</ele>
        <time>2021-12-05T08:23:09Z</time>
      </trkpt>
      <trkpt lat="44.81584" lon="5.11476">
        <ele>846.1</ele>
        <time>2021-12-05T08:23:10Z</time>
      </trkpt>
      <trkpt lat="44.81584" lon="5.11476">
        <ele>845.62</ele>
        <time>2021-12-05T08:23:11Z</time>
      </trkpt>
      <trkpt lat="44.81584" lon="5.11476">
        <ele>842.25</ele>
        <time>2021-12-05T08:23:13Z</time>
      </trkpt>
      <trkpt lat="44.81584" lon="5.11476">
        <ele>847.06</ele>
        <time>2021-12-05T08:23:14Z</time>
      </trkpt>
      <trkpt lat="44.81584" lon="5.11476">
        <ele>843.21</ele>
        <time>2021-12-05T08:23:19Z</time>
      </trkpt>
      <trkpt lat="44.81584" lon="5.11476">
        <ele>846.58</ele>
        <time>2021-12-05T08:23:20Z</time>
      </trkpt>
      <trkpt lat="44.81584" lon="5.11476">
        <ele>839.85</ele>
        <time>2021-12-05T08:23:21Z</time>
      </trkpt>
      <trkpt lat="44.81584" lon="5.11476">
        <ele>849.94</ele>
        <time>2021-12-05T08:23:22Z</time>
      </trkpt>
      <trkpt lat="44.81584" lon="5.11476">
        <ele>838.41</ele>
        <time>2021-12-05T08:23:23Z</time>
      </trkpt>
      <trkpt lat="44.81584" lon="5.11476">
        <ele>848.98</ele>
        <time>2021-12-05T08:23:24Z</time>
      </trkpt>
      <trkpt lat="44.81584" lon="5.11476">
        <ele>841.29</ele>
        <time>2021-12-05T08:23:25Z</time>
      </trkpt>
      <trkpt lat="44.81584" lon="5.11476">
        <ele>846.58</ele>
        <time>2021-12-05T08:23:26Z</time>
      </trkpt>
      <trkpt lat="44.81584" lon="5.11476">
        <ele>841.77</ele>
        <time>2021-12-05T08:23:27Z</time>
      </trkpt>
      <trkpt lat="44.81584" lon="5.11476">
        <ele>850.42</ele>
        <time>2021-12-05T08:23:30Z</time>
      </trkpt>
      <trkpt lat="44.81584" lon="5.11476">
        <ele>844.66</ele>
        <time>2021-12-05T08:23:31Z</time>
      </trkpt>
      <trkpt lat="44.81584" lon="5.11476">
        <ele>843.69</ele>
        <time>2021-12-05T08:23:33Z</time>
      </trkpt>
      <trkpt lat="44.81584" lon="5.11476">
        <ele>843.69</ele>
        <time>2021-12-05T08:23:34Z</time>
      </trkpt>
      <trkpt lat="44.81573" lon="5.11487">
        <ele>844.18</ele>
        <time>2021-12-05T08:23:43Z</time>
      </trkpt>
      <trkpt lat="44.81563" lon="5.11494">
        <ele>837.45</ele>
        <time>2021-12-05T08:23:54Z</time>
      </trkpt>
      <trkpt lat="44.81562" lon="5.11495">
        <ele>843.69</ele>
        <time>2021-12-05T08:23:55Z</time>
      </trkpt>
      <trkpt lat="44.8156" lon="5.11496">
        <ele>840.33</ele>
        <time>2021-12-05T08:23:57Z</time>
      </trkpt>
      <trkpt lat="44.8156" lon="5.11496">
        <ele>847.54</ele>
        <time>2021-12-05T08:23:58Z</time>
      </trkpt>
      <trkpt lat="44.81559" lon="5.11497">
        <ele>847.54</ele>
        <time>2021-12-05T08:23:59Z</time>
      </trkpt>
      <trkpt lat="44.81557" lon="5.11498">
        <ele>844.18</ele>
        <time>2021-12-05T08:24:01Z</time>
      </trkpt>
      <trkpt lat="44.81556" lon="5.11499">
        <ele>851.87</ele>
        <time>2021-12-05T08:24:03Z</time>
      </trkpt>
      <trkpt lat="44.81556" lon="5.115">
        <ele>843.69</ele>
        <time>2021-12-05T08:24:04Z</time>
      </trkpt>
      <trkpt lat="44.81546" lon="5.11506">
        <ele>849.94</ele>
        <time>2021-12-05T08:24:15Z</time>
      </trkpt>
      <trkpt lat="44.81545" lon="5.11507">
        <ele>845.14</ele>
        <time>2021-12-05T08:24:16Z</time>
      </trkpt>
      <trkpt lat="44.81535" lon="5.11515">
        <ele>844.66</ele>
        <time>2021-12-05T08:24:29Z</time>
      </trkpt>
      <trkpt lat="44.81534" lon="5.11516">
        <ele>845.62</ele>
        <time>2021-12-05T08:24:30Z</time>
      </trkpt>
      <trkpt lat="44.81521" lon="5.11527">
        <ele>846.1</ele>
        <time>2021-12-05T08:24:45Z</time>
      </trkpt>
      <trkpt lat="44.8151" lon="5.11538">
        <ele>847.06</ele>
        <time>2021-12-05T08:24:59Z</time>
      </trkpt>
      <trkpt lat="44.81498" lon="5.11546">
        <ele>848.02</ele>
        <time>2021-12-05T08:25:13Z</time>
      </trkpt>
      <trkpt lat="44.8149" lon="5.11554">
        <ele>848.5</ele>
        <time>2021-12-05T08:25:27Z</time>
      </trkpt>
      <trkpt lat="44.81488" lon="5.11556">
        <ele>848.98</ele>
        <time>2021-12-05T08:25:29Z</time>
      </trkpt>
      <trkpt lat="44.81479" lon="5.11563">
        <ele>850.9</ele>
        <time>2021-12-05T08:25:43Z</time>
      </trkpt>
      <trkpt lat="44.8147" lon="5.1157">
        <ele>851.38</ele>
        <time>2021-12-05T08:25:53Z</time>
      </trkpt>
      <trkpt lat="44.81456" lon="5.11581">
        <ele>852.83</ele>
        <time>2021-12-05T08:26:10Z</time>
      </trkpt>
      <trkpt lat="44.81445" lon="5.11587">
        <ele>853.79</ele>
        <time>2021-12-05T08:26:25Z</time>
      </trkpt>
      <trkpt lat="44.81441" lon="5.1159">
        <ele>855.71</ele>
        <time>2021-12-05T08:26:43Z</time>
      </trkpt>
      <trkpt lat="44.81429" lon="5.11604">
        <ele>856.19</ele>
        <time>2021-12-05T08:26:58Z</time>
      </trkpt>
      <trkpt lat="44.81415" lon="5.11617">
        <ele>857.15</ele>
        <time>2021-12-05T08:27:10Z</time>
      </trkpt>
      <trkpt lat="44.81402" lon="5.11624">
        <ele>859.08</ele>
        <time>2021-12-05T08:27:24Z</time>
      </trkpt>
      <trkpt lat="44.81389" lon="5.11627">
        <ele>859.56</ele>
        <time>2021-12-05T08:27:38Z</time>
      </trkpt>
      <trkpt lat="44.81378" lon="5.11634">
        <ele>861</ele>
        <time>2021-12-05T08:27:53Z</time>
      </trkpt>
      <trkpt lat="44.81368" lon="5.1164">
        <ele>861.96</ele>
        <time>2021-12-05T08:28:06Z</time>
      </trkpt>
      <trkpt lat="44.81356" lon="5.11651">
        <ele>862.92</ele>
        <time>2021-12-05T08:28:20Z</time>
      </trkpt>
      <trkpt lat="44.81352" lon="5.11659">
        <ele>863.4</ele>
        <time>2021-12-05T08:28:28Z</time>
      </trkpt>
      <trkpt lat="44.81345" lon="5.11663">
        <ele>863.88</ele>
        <time>2021-12-05T08:28:36Z</time>
      </trkpt>
      <trkpt lat="44.81334" lon="5.11667">
        <ele>865.32</ele>
        <time>2021-12-05T08:28:48Z</time>
      </trkpt>
      <trkpt lat="44.81325" lon="5.11672">
        <ele>866.29</ele>
        <time>2021-12-05T08:29:01Z</time>
      </trkpt>
      <trkpt lat="44.81315" lon="5.11676">
        <ele>867.25</ele>
        <time>2021-12-05T08:29:14Z</time>
      </trkpt>
      <trkpt lat="44.81305" lon="5.11676">
        <ele>868.21</ele>
        <time>2021-12-05T08:29:25Z</time>
      </trkpt>
      <trkpt lat="44.81297" lon="5.1168">
        <ele>868.69</ele>
        <time>2021-12-05T08:29:36Z</time>
      </trkpt>
      <trkpt lat="44.81284" lon="5.11677">
        <ele>870.13</ele>
        <time>2021-12-05T08:29:51Z</time>
      </trkpt>
      <trkpt lat="44.81275" lon="5.11686">
        <ele>871.09</ele>
        <time>2021-12-05T08:30:04Z</time>
      </trkpt>
      <trkpt lat="44.81269" lon="5.11687">
        <ele>871.57</ele>
        <time>2021-12-05T08:30:17Z</time>
      </trkpt>
      <trkpt lat="44.81267" lon="5.1169">
        <ele>872.53</ele>
        <time>2021-12-05T08:30:34Z</time>
      </trkpt>
      <trkpt lat="44.81265" lon="5.11692">
        <ele>873.01</ele>
        <time>2021-12-05T08:30:50Z</time>
      </trkpt>
      <trkpt lat="44.81262" lon="5.11693">
        <ele>873.01</ele>
        <time>2021-12-05T08:31:08Z</time>
      </trkpt>
      <trkpt lat="44.8125" lon="5.117">
        <ele>873.5</ele>
        <time>2021-12-05T08:31:20Z</time>
      </trkpt>
      <trkpt lat="44.81237" lon="5.11707">
        <ele>874.94</ele>
        <time>2021-12-05T08:31:35Z</time>
      </trkpt>
      <trkpt lat="44.81228" lon="5.11711">
        <ele>875.42</ele>
        <time>2021-12-05T08:31:47Z</time>
      </trkpt>
      <trkpt lat="44.81219" lon="5.11716">
        <ele>876.38</ele>
        <time>2021-12-05T08:31:57Z</time>
      </trkpt>
      <trkpt lat="44.81211" lon="5.11717">
        <ele>876.86</ele>
        <time>2021-12-05T08:32:08Z</time>
      </trkpt>
      <trkpt lat="44.81203" lon="5.11719">
        <ele>877.82</ele>
        <time>2021-12-05T08:32:18Z</time>
      </trkpt>
      <trkpt lat="44.81199" lon="5.11722">
        <ele>878.3</ele>
        <time>2021-12-05T08:32:24Z</time>
      </trkpt>
      <trkpt lat="44.81188" lon="5.11729">
        <ele>878.78</ele>
        <time>2021-12-05T08:32:36Z</time>
      </trkpt>
      <trkpt lat="44.81186" lon="5.11731">
        <ele>878.78</ele>
        <time>2021-12-05T08:32:47Z</time>
      </trkpt>
      <trkpt lat="44.81186" lon="5.11731">
        <ele>878.78</ele>
        <time>2021-12-05T08:33:09Z</time>
      </trkpt>
      <trkpt lat="44.81185" lon="5.11733">
        <ele>878.78</ele>
        <time>2021-12-05T08:33:41Z</time>
      </trkpt>
      <trkpt lat="44.81179" lon="5.11735">
        <ele>879.74</ele>
        <time>2021-12-05T08:33:52Z</time>
      </trkpt>
      <trkpt lat="44.81177" lon="5.11736">
        <ele>879.26</ele>
        <time>2021-12-05T08:33:55Z</time>
      </trkpt>
      <trkpt lat="44.81165" lon="5.11743">
        <ele>880.22</ele>
        <time>2021-12-05T08:34:08Z</time>
      </trkpt>
      <trkpt lat="44.81156" lon="5.11748">
        <ele>880.71</ele>
        <time>2021-12-05T08:34:19Z</time>
      </trkpt>
      <trkpt lat="44.81145" lon="5.11753">
        <ele>882.15</ele>
        <time>2021-12-05T08:34:31Z</time>
      </trkpt>
      <trkpt lat="44.81142" lon="5.11754">
        <ele>882.63</ele>
        <time>2021-12-05T08:34:34Z</time>
      </trkpt>
      <trkpt lat="44.81131" lon="5.11763">
        <ele>883.59</ele>
        <time>2021-12-05T08:34:48Z</time>
      </trkpt>
      <trkpt lat="44.81122" lon="5.11767">
        <ele>884.55</ele>
        <time>2021-12-05T08:35:00Z</time>
      </trkpt>
      <trkpt lat="44.81114" lon="5.11773">
        <ele>885.03</ele>
        <time>2021-12-05T08:35:10Z</time>
      </trkpt>
      <trkpt lat="44.81108" lon="5.11775">
        <ele>885.51</ele>
        <time>2021-12-05T08:35:18Z</time>
      </trkpt>
      <trkpt lat="44.81097" lon="5.11782">
        <ele>886.47</ele>
        <time>2021-12-05T08:35:31Z</time>
      </trkpt>
      <trkpt lat="44.81087" lon="5.11789">
        <ele>887.91</ele>
        <time>2021-12-05T08:35:44Z</time>
      </trkpt>
      <trkpt lat="44.81083" lon="5.11786">
        <ele>887.91</ele>
        <time>2021-12-05T08:35:58Z</time>
      </trkpt>
      <trkpt lat="44.81083" lon="5.11786">
        <ele>888.4</ele>
        <time>2021-12-05T08:36:01Z</time>
      </trkpt>
      <trkpt lat="44.81076" lon="5.11794">
        <ele>889.36</ele>
        <time>2021-12-05T08:36:12Z</time>
      </trkpt>
      <trkpt lat="44.81069" lon="5.11801">
        <ele>890.32</ele>
        <time>2021-12-05T08:36:22Z</time>
      </trkpt>
      <trkpt lat="44.81065" lon="5.11799">
        <ele>890.8</ele>
        <time>2021-12-05T08:36:33Z</time>
      </trkpt>
      <trkpt lat="44.81065" lon="5.11799">
        <ele>890.8</ele>
        <time>2021-12-05T08:37:05Z</time>
      </trkpt>
      <trkpt lat="44.81065" lon="5.118">
        <ele>890.8</ele>
        <time>2021-12-05T08:37:32Z</time>
      </trkpt>
      <trkpt lat="44.81066" lon="5.118">
        <ele>890.32</ele>
        <time>2021-12-05T08:38:07Z</time>
      </trkpt>
      <trkpt lat="44.81066" lon="5.118">
        <ele>890.32</ele>
        <time>2021-12-05T08:38:29Z</time>
      </trkpt>
      <trkpt lat="44.81065" lon="5.118">
        <ele>890.32</ele>
        <time>2021-12-05T08:38:56Z</time>
      </trkpt>
      <trkpt lat="44.81065" lon="5.118">
        <ele>890.8</ele>
        <time>2021-12-05T08:39:06Z</time>
      </trkpt>
      <trkpt lat="44.81063" lon="5.11804">
        <ele>890.8</ele>
        <time>2021-12-05T08:39:19Z</time>
      </trkpt>
      <trkpt lat="44.81063" lon="5.11804">
        <ele>891.28</ele>
        <time>2021-12-05T08:39:37Z</time>
      </trkpt>
      <trkpt lat="44.81056" lon="5.11809">
        <ele>891.76</ele>
        <time>2021-12-05T08:39:47Z</time>
      </trkpt>
      <trkpt lat="44.81052" lon="5.11812">
        <ele>892.24</ele>
        <time>2021-12-05T08:39:52Z</time>
      </trkpt>
      <trkpt lat="44.81041" lon="5.11823">
        <ele>893.2</ele>
        <time>2021-12-05T08:40:04Z</time>
      </trkpt>
      <trkpt lat="44.81037" lon="5.11827">
        <ele>893.2</ele>
        <time>2021-12-05T08:40:08Z</time>
      </trkpt>
      <trkpt lat="44.81026" lon="5.11835">
        <ele>894.16</ele>
        <time>2021-12-05T08:40:22Z</time>
      </trkpt>
      <trkpt lat="44.81023" lon="5.11836">
        <ele>894.64</ele>
        <time>2021-12-05T08:40:25Z</time>
      </trkpt>
      <trkpt lat="44.8101" lon="5.11842">
        <ele>895.61</ele>
        <time>2021-12-05T08:40:37Z</time>
      </trkpt>
      <trkpt lat="44.80998" lon="5.1185">
        <ele>897.05</ele>
        <time>2021-12-05T08:40:51Z</time>
      </trkpt>
      <trkpt lat="44.80988" lon="5.11852">
        <ele>898.01</ele>
        <time>2021-12-05T08:41:02Z</time>
      </trkpt>
      <trkpt lat="44.80981" lon="5.11858">
        <ele>898.01</ele>
        <time>2021-12-05T08:41:12Z</time>
      </trkpt>
      <trkpt lat="44.80972" lon="5.11864">
        <ele>899.45</ele>
        <time>2021-12-05T08:41:23Z</time>
      </trkpt>
      <trkpt lat="44.80966" lon="5.11869">
        <ele>899.93</ele>
        <time>2021-12-05T08:41:30Z</time>
      </trkpt>
      <trkpt lat="44.80959" lon="5.11875">
        <ele>899.93</ele>
        <time>2021-12-05T08:41:44Z</time>
      </trkpt>
      <trkpt lat="44.8095" lon="5.11882">
        <ele>900.89</ele>
        <time>2021-12-05T08:41:54Z</time>
      </trkpt>
      <trkpt lat="44.80944" lon="5.11885">
        <ele>901.37</ele>
        <time>2021-12-05T08:42:03Z</time>
      </trkpt>
      <trkpt lat="44.80934" lon="5.11892">
        <ele>901.85</ele>
        <time>2021-12-05T08:42:14Z</time>
      </trkpt>
      <trkpt lat="44.8093" lon="5.11895">
        <ele>903.3</ele>
        <time>2021-12-05T08:42:19Z</time>
      </trkpt>
      <trkpt lat="44.80925" lon="5.11899">
        <ele>903.78</ele>
        <time>2021-12-05T08:42:26Z</time>
      </trkpt>
      <trkpt lat="44.80913" lon="5.11906">
        <ele>904.26</ele>
        <time>2021-12-05T08:42:39Z</time>
      </trkpt>
      <trkpt lat="44.8091" lon="5.11907">
        <ele>905.22</ele>
        <time>2021-12-05T08:42:50Z</time>
      </trkpt>
      <trkpt lat="44.80899" lon="5.11918">
        <ele>905.7</ele>
        <time>2021-12-05T08:43:01Z</time>
      </trkpt>
      <trkpt lat="44.8089" lon="5.11926">
        <ele>907.14</ele>
        <time>2021-12-05T08:43:11Z</time>
      </trkpt>
      <trkpt lat="44.80884" lon="5.11931">
        <ele>907.62</ele>
        <time>2021-12-05T08:43:21Z</time>
      </trkpt>
      <trkpt lat="44.80874" lon="5.11934">
        <ele>908.58</ele>
        <time>2021-12-05T08:43:30Z</time>
      </trkpt>
      <trkpt lat="44.80868" lon="5.1194">
        <ele>908.1</ele>
        <time>2021-12-05T08:43:39Z</time>
      </trkpt>
      <trkpt lat="44.80855" lon="5.11947">
        <ele>909.54</ele>
        <time>2021-12-05T08:43:51Z</time>
      </trkpt>
      <trkpt lat="44.80844" lon="5.11953">
        <ele>910.03</ele>
        <time>2021-12-05T08:44:04Z</time>
      </trkpt>
      <trkpt lat="44.80835" lon="5.11966">
        <ele>911.47</ele>
        <time>2021-12-05T08:44:20Z</time>
      </trkpt>
      <trkpt lat="44.80835" lon="5.11999">
        <ele>911.47</ele>
        <time>2021-12-05T08:44:36Z</time>
      </trkpt>
      <trkpt lat="44.80835" lon="5.12">
        <ele>911.47</ele>
        <time>2021-12-05T08:44:37Z</time>
      </trkpt>
      <trkpt lat="44.80844" lon="5.12021">
        <ele>911.95</ele>
        <time>2021-12-05T08:44:51Z</time>
      </trkpt>
      <trkpt lat="44.80849" lon="5.12029">
        <ele>911.95</ele>
        <time>2021-12-05T08:44:56Z</time>
      </trkpt>
      <trkpt lat="44.80862" lon="5.12037">
        <ele>915.31</ele>
        <time>2021-12-05T08:45:10Z</time>
      </trkpt>
      <trkpt lat="44.80863" lon="5.12038">
        <ele>911.95</ele>
        <time>2021-12-05T08:45:11Z</time>
      </trkpt>
      <trkpt lat="44.80864" lon="5.12038">
        <ele>915.31</ele>
        <time>2021-12-05T08:45:12Z</time>
      </trkpt>
      <trkpt lat="44.80866" lon="5.12039">
        <ele>912.43</ele>
        <time>2021-12-05T08:45:14Z</time>
      </trkpt>
      <trkpt lat="44.80869" lon="5.1204">
        <ele>913.87</ele>
        <time>2021-12-05T08:45:18Z</time>
      </trkpt>
      <trkpt lat="44.80876" lon="5.12044">
        <ele>913.39</ele>
        <time>2021-12-05T08:45:30Z</time>
      </trkpt>
      <trkpt lat="44.80879" lon="5.1205">
        <ele>913.39</ele>
        <time>2021-12-05T08:45:36Z</time>
      </trkpt>
      <trkpt lat="44.80882" lon="5.12053">
        <ele>913.39</ele>
        <time>2021-12-05T08:45:40Z</time>
      </trkpt>
      <trkpt lat="44.80891" lon="5.12062">
        <ele>912.91</ele>
        <time>2021-12-05T08:45:51Z</time>
      </trkpt>
      <trkpt lat="44.80894" lon="5.12064">
        <ele>912.43</ele>
        <time>2021-12-05T08:45:55Z</time>
      </trkpt>
      <trkpt lat="44.80903" lon="5.12069">
        <ele>913.39</ele>
        <time>2021-12-05T08:46:06Z</time>
      </trkpt>
      <trkpt lat="44.80907" lon="5.1207">
        <ele>913.39</ele>
        <time>2021-12-05T08:46:13Z</time>
      </trkpt>
      <trkpt lat="44.80921" lon="5.1207">
        <ele>913.87</ele>
        <time>2021-12-05T08:46:28Z</time>
      </trkpt>
      <trkpt lat="44.80927" lon="5.12077">
        <ele>913.39</ele>
        <time>2021-12-05T08:46:40Z</time>
      </trkpt>
      <trkpt lat="44.8093" lon="5.12079">
        <ele>913.39</ele>
        <time>2021-12-05T08:46:44Z</time>
      </trkpt>
      <trkpt lat="44.80941" lon="5.1209">
        <ele>913.87</ele>
        <time>2021-12-05T08:47:00Z</time>
      </trkpt>
      <trkpt lat="44.80944" lon="5.12095">
        <ele>913.87</ele>
        <time>2021-12-05T08:47:04Z</time>
      </trkpt>
      <trkpt lat="44.80945" lon="5.12107">
        <ele>912.91</ele>
        <time>2021-12-05T08:47:17Z</time>
      </trkpt>
      <trkpt lat="44.80945" lon="5.12114">
        <ele>913.87</ele>
        <time>2021-12-05T08:47:29Z</time>
      </trkpt>
      <trkpt lat="44.80945" lon="5.12124">
        <ele>913.87</ele>
        <time>2021-12-05T08:47:40Z</time>
      </trkpt>
      <trkpt lat="44.80944" lon="5.12139">
        <ele>913.39</ele>
        <time>2021-12-05T08:47:53Z</time>
      </trkpt>
      <trkpt lat="44.80942" lon="5.12145">
        <ele>913.87</ele>
        <time>2021-12-05T08:48:00Z</time>
      </trkpt>
      <trkpt lat="44.80941" lon="5.12154">
        <ele>914.35</ele>
        <time>2021-12-05T08:48:08Z</time>
      </trkpt>
      <trkpt lat="44.80938" lon="5.12165">
        <ele>913.87</ele>
        <time>2021-12-05T08:48:22Z</time>
      </trkpt>
      <trkpt lat="44.80933" lon="5.12182">
        <ele>913.87</ele>
        <time>2021-12-05T08:48:35Z</time>
      </trkpt>
      <trkpt lat="44.80926" lon="5.12199">
        <ele>913.39</ele>
        <time>2021-12-05T08:48:49Z</time>
      </trkpt>
      <trkpt lat="44.80919" lon="5.12213">
        <ele>913.87</ele>
        <time>2021-12-05T08:49:04Z</time>
      </trkpt>
      <trkpt lat="44.80919" lon="5.12214">
        <ele>913.39</ele>
        <time>2021-12-05T08:49:05Z</time>
      </trkpt>
      <trkpt lat="44.80912" lon="5.12224">
        <ele>913.39</ele>
        <time>2021-12-05T08:49:17Z</time>
      </trkpt>
      <trkpt lat="44.8091" lon="5.12225">
        <ele>912.91</ele>
        <time>2021-12-05T08:49:19Z</time>
      </trkpt>
      <trkpt lat="44.80901" lon="5.12233">
        <ele>913.87</ele>
        <time>2021-12-05T08:49:32Z</time>
      </trkpt>
      <trkpt lat="44.80893" lon="5.12249">
        <ele>913.39</ele>
        <time>2021-12-05T08:49:45Z</time>
      </trkpt>
      <trkpt lat="44.80885" lon="5.12259">
        <ele>912.43</ele>
        <time>2021-12-05T08:49:57Z</time>
      </trkpt>
      <trkpt lat="44.80881" lon="5.12266">
        <ele>911.95</ele>
        <time>2021-12-05T08:50:03Z</time>
      </trkpt>
      <trkpt lat="44.80874" lon="5.12282">
        <ele>910.99</ele>
        <time>2021-12-05T08:50:15Z</time>
      </trkpt>
      <trkpt lat="44.8087" lon="5.12301">
        <ele>909.54</ele>
        <time>2021-12-05T08:50:29Z</time>
      </trkpt>
      <trkpt lat="44.80869" lon="5.12308">
        <ele>909.54</ele>
        <time>2021-12-05T08:50:34Z</time>
      </trkpt>
      <trkpt lat="44.80865" lon="5.12327">
        <ele>908.1</ele>
        <time>2021-12-05T08:50:49Z</time>
      </trkpt>
      <trkpt lat="44.80863" lon="5.12338">
        <ele>906.66</ele>
        <time>2021-12-05T08:50:58Z</time>
      </trkpt>
      <trkpt lat="44.80864" lon="5.12352">
        <ele>904.74</ele>
        <time>2021-12-05T08:51:12Z</time>
      </trkpt>
      <trkpt lat="44.80869" lon="5.12369">
        <ele>904.74</ele>
        <time>2021-12-05T08:51:24Z</time>
      </trkpt>
      <trkpt lat="44.80871" lon="5.12374">
        <ele>904.74</ele>
        <time>2021-12-05T08:51:27Z</time>
      </trkpt>
      <trkpt lat="44.80877" lon="5.12394">
        <ele>902.33</ele>
        <time>2021-12-05T08:51:41Z</time>
      </trkpt>
      <trkpt lat="44.80878" lon="5.12403">
        <ele>900.89</ele>
        <time>2021-12-05T08:51:48Z</time>
      </trkpt>
      <trkpt lat="44.80868" lon="5.12401">
        <ele>900.41</ele>
        <time>2021-12-05T08:52:02Z</time>
      </trkpt>
      <trkpt lat="44.80867" lon="5.12402">
        <ele>899.45</ele>
        <time>2021-12-05T08:52:18Z</time>
      </trkpt>
      <trkpt lat="44.80867" lon="5.12402">
        <ele>899.45</ele>
        <time>2021-12-05T08:52:36Z</time>
      </trkpt>
      <trkpt lat="44.80867" lon="5.12402">
        <ele>898.97</ele>
        <time>2021-12-05T08:52:57Z</time>
      </trkpt>
      <trkpt lat="44.80867" lon="5.12402">
        <ele>898.97</ele>
        <time>2021-12-05T08:53:22Z</time>
      </trkpt>
      <trkpt lat="44.80867" lon="5.12402">
        <ele>898.97</ele>
        <time>2021-12-05T08:53:49Z</time>
      </trkpt>
      <trkpt lat="44.80866" lon="5.12403">
        <ele>898.97</ele>
        <time>2021-12-05T08:54:09Z</time>
      </trkpt>
      <trkpt lat="44.80866" lon="5.12403">
        <ele>898.49</ele>
        <time>2021-12-05T08:54:35Z</time>
      </trkpt>
      <trkpt lat="44.80866" lon="5.12403">
        <ele>898.49</ele>
        <time>2021-12-05T08:55:06Z</time>
      </trkpt>
      <trkpt lat="44.80866" lon="5.12403">
        <ele>898.49</ele>
        <time>2021-12-05T08:55:29Z</time>
      </trkpt>
      <trkpt lat="44.80866" lon="5.12403">
        <ele>898.49</ele>
        <time>2021-12-05T08:55:56Z</time>
      </trkpt>
      <trkpt lat="44.80867" lon="5.12403">
        <ele>898.49</ele>
        <time>2021-12-05T08:56:12Z</time>
      </trkpt>
      <trkpt lat="44.80867" lon="5.12403">
        <ele>898.01</ele>
        <time>2021-12-05T08:56:40Z</time>
      </trkpt>
      <trkpt lat="44.80866" lon="5.12403">
        <ele>898.01</ele>
        <time>2021-12-05T08:57:02Z</time>
      </trkpt>
      <trkpt lat="44.80866" lon="5.12403">
        <ele>898.01</ele>
        <time>2021-12-05T08:57:29Z</time>
      </trkpt>
      <trkpt lat="44.80866" lon="5.12403">
        <ele>898.01</ele>
        <time>2021-12-05T08:57:52Z</time>
      </trkpt>
      <trkpt lat="44.80866" lon="5.12403">
        <ele>898.01</ele>
        <time>2021-12-05T08:57:54Z</time>
      </trkpt>
      <trkpt lat="44.80872" lon="5.12403">
        <ele>898.97</ele>
        <time>2021-12-05T08:58:04Z</time>
      </trkpt>
      <trkpt lat="44.80873" lon="5.12404">
        <ele>898.97</ele>
        <time>2021-12-05T08:58:05Z</time>
      </trkpt>
      <trkpt lat="44.80876" lon="5.12406">
        <ele>899.45</ele>
        <time>2021-12-05T08:58:09Z</time>
      </trkpt>
      <trkpt lat="44.80883" lon="5.12411">
        <ele>898.49</ele>
        <time>2021-12-05T08:58:20Z</time>
      </trkpt>
      <trkpt lat="44.80888" lon="5.12416">
        <ele>898.49</ele>
        <time>2021-12-05T08:58:33Z</time>
      </trkpt>
      <trkpt lat="44.80893" lon="5.12422">
        <ele>898.01</ele>
        <time>2021-12-05T08:58:41Z</time>
      </trkpt>
      <trkpt lat="44.80894" lon="5.12423">
        <ele>898.01</ele>
        <time>2021-12-05T08:58:44Z</time>
      </trkpt>
      <trkpt lat="44.80895" lon="5.12427">
        <ele>897.53</ele>
        <time>2021-12-05T08:58:47Z</time>
      </trkpt>
      <trkpt lat="44.80903" lon="5.12432">
        <ele>897.53</ele>
        <time>2021-12-05T08:58:57Z</time>
      </trkpt>
      <trkpt lat="44.80903" lon="5.12434">
        <ele>896.57</ele>
        <time>2021-12-05T08:59:05Z</time>
      </trkpt>
      <trkpt lat="44.80902" lon="5.12435">
        <ele>895.61</ele>
        <time>2021-12-05T08:59:21Z</time>
      </trkpt>
      <trkpt lat="44.80902" lon="5.12434">
        <ele>896.57</ele>
        <time>2021-12-05T08:59:27Z</time>
      </trkpt>
      <trkpt lat="44.80904" lon="5.12432">
        <ele>896.57</ele>
        <time>2021-12-05T08:59:30Z</time>
      </trkpt>
      <trkpt lat="44.80906" lon="5.12429">
        <ele>897.05</ele>
        <time>2021-12-05T08:59:42Z</time>
      </trkpt>
      <trkpt lat="44.80907" lon="5.1243">
        <ele>896.57</ele>
        <time>2021-12-05T08:59:55Z</time>
      </trkpt>
      <trkpt lat="44.80907" lon="5.12431">
        <ele>896.57</ele>
        <time>2021-12-05T09:00:17Z</time>
      </trkpt>
      <trkpt lat="44.80905" lon="5.12432">
        <ele>896.09</ele>
        <time>2021-12-05T09:00:32Z</time>
      </trkpt>
      <trkpt lat="44.80905" lon="5.12432">
        <ele>896.09</ele>
        <time>2021-12-05T09:00:54Z</time>
      </trkpt>
      <trkpt lat="44.80905" lon="5.12433">
        <ele>896.09</ele>
        <time>2021-12-05T09:01:14Z</time>
      </trkpt>
      <trkpt lat="44.80906" lon="5.12432">
        <ele>896.57</ele>
        <time>2021-12-05T09:01:25Z</time>
      </trkpt>
      <trkpt lat="44.80912" lon="5.12434">
        <ele>896.09</ele>
        <time>2021-12-05T09:01:33Z</time>
      </trkpt>
      <trkpt lat="44.80915" lon="5.1244">
        <ele>895.61</ele>
        <time>2021-12-05T09:01:45Z</time>
      </trkpt>
      <trkpt lat="44.80916" lon="5.1244">
        <ele>895.61</ele>
        <time>2021-12-05T09:02:11Z</time>
      </trkpt>
      <trkpt lat="44.80915" lon="5.1244">
        <ele>894.16</ele>
        <time>2021-12-05T09:02:20Z</time>
      </trkpt>
      <trkpt lat="44.80914" lon="5.12438">
        <ele>895.12</ele>
        <time>2021-12-05T09:02:25Z</time>
      </trkpt>
      <trkpt lat="44.80915" lon="5.12441">
        <ele>894.64</ele>
        <time>2021-12-05T09:02:29Z</time>
      </trkpt>
      <trkpt lat="44.80913" lon="5.12444">
        <ele>893.68</ele>
        <time>2021-12-05T09:02:41Z</time>
      </trkpt>
      <trkpt lat="44.80913" lon="5.12444">
        <ele>893.68</ele>
        <time>2021-12-05T09:03:12Z</time>
      </trkpt>
      <trkpt lat="44.80914" lon="5.12444">
        <ele>892.72</ele>
        <time>2021-12-05T09:03:30Z</time>
      </trkpt>
      <trkpt lat="44.80916" lon="5.1244">
        <ele>894.16</ele>
        <time>2021-12-05T09:03:38Z</time>
      </trkpt>
      <trkpt lat="44.80918" lon="5.12439">
        <ele>895.12</ele>
        <time>2021-12-05T09:03:52Z</time>
      </trkpt>
      <trkpt lat="44.80924" lon="5.12443">
        <ele>894.16</ele>
        <time>2021-12-05T09:04:02Z</time>
      </trkpt>
      <trkpt lat="44.80931" lon="5.12451">
        <ele>893.2</ele>
        <time>2021-12-05T09:04:12Z</time>
      </trkpt>
      <trkpt lat="44.80939" lon="5.12457">
        <ele>891.76</ele>
        <time>2021-12-05T09:04:21Z</time>
      </trkpt>
      <trkpt lat="44.80946" lon="5.12463">
        <ele>891.28</ele>
        <time>2021-12-05T09:04:31Z</time>
      </trkpt>
      <trkpt lat="44.80955" lon="5.12468">
        <ele>890.32</ele>
        <time>2021-12-05T09:04:42Z</time>
      </trkpt>
      <trkpt lat="44.80965" lon="5.12474">
        <ele>889.36</ele>
        <time>2021-12-05T09:04:54Z</time>
      </trkpt>
      <trkpt lat="44.80973" lon="5.12478">
        <ele>888.4</ele>
        <time>2021-12-05T09:05:04Z</time>
      </trkpt>
      <trkpt lat="44.80979" lon="5.1248">
        <ele>887.91</ele>
        <time>2021-12-05T09:05:18Z</time>
      </trkpt>
      <trkpt lat="44.80984" lon="5.12482">
        <ele>887.43</ele>
        <time>2021-12-05T09:05:33Z</time>
      </trkpt>
      <trkpt lat="44.80995" lon="5.12489">
        <ele>886.47</ele>
        <time>2021-12-05T09:05:44Z</time>
      </trkpt>
      <trkpt lat="44.80997" lon="5.1249">
        <ele>885.99</ele>
        <time>2021-12-05T09:05:46Z</time>
      </trkpt>
      <trkpt lat="44.81007" lon="5.12495">
        <ele>884.55</ele>
        <time>2021-12-05T09:05:58Z</time>
      </trkpt>
      <trkpt lat="44.8101" lon="5.12496">
        <ele>884.07</ele>
        <time>2021-12-05T09:06:01Z</time>
      </trkpt>
      <trkpt lat="44.81019" lon="5.12501">
        <ele>882.63</ele>
        <time>2021-12-05T09:06:12Z</time>
      </trkpt>
      <trkpt lat="44.8102" lon="5.12502">
        <ele>882.15</ele>
        <time>2021-12-05T09:06:13Z</time>
      </trkpt>
      <trkpt lat="44.81028" lon="5.12507">
        <ele>881.19</ele>
        <time>2021-12-05T09:06:25Z</time>
      </trkpt>
      <trkpt lat="44.81042" lon="5.12508">
        <ele>879.74</ele>
        <time>2021-12-05T09:06:36Z</time>
      </trkpt>
      <trkpt lat="44.81057" lon="5.12513">
        <ele>878.3</ele>
        <time>2021-12-05T09:06:51Z</time>
      </trkpt>
      <trkpt lat="44.81072" lon="5.12516">
        <ele>876.86</ele>
        <time>2021-12-05T09:07:04Z</time>
      </trkpt>
      <trkpt lat="44.81084" lon="5.12518">
        <ele>875.42</ele>
        <time>2021-12-05T09:07:16Z</time>
      </trkpt>
      <trkpt lat="44.81087" lon="5.12519">
        <ele>875.42</ele>
        <time>2021-12-05T09:07:19Z</time>
      </trkpt>
      <trkpt lat="44.81099" lon="5.12524">
        <ele>873.5</ele>
        <time>2021-12-05T09:07:31Z</time>
      </trkpt>
      <trkpt lat="44.81107" lon="5.1253">
        <ele>873.01</ele>
        <time>2021-12-05T09:07:42Z</time>
      </trkpt>
      <trkpt lat="44.81116" lon="5.12534">
        <ele>871.57</ele>
        <time>2021-12-05T09:07:55Z</time>
      </trkpt>
      <trkpt lat="44.81124" lon="5.12538">
        <ele>870.61</ele>
        <time>2021-12-05T09:08:03Z</time>
      </trkpt>
      <trkpt lat="44.81134" lon="5.12543">
        <ele>870.61</ele>
        <time>2021-12-05T09:08:14Z</time>
      </trkpt>
      <trkpt lat="44.81146" lon="5.12542">
        <ele>869.17</ele>
        <time>2021-12-05T09:08:27Z</time>
      </trkpt>
      <trkpt lat="44.8116" lon="5.12545">
        <ele>868.69</ele>
        <time>2021-12-05T09:08:40Z</time>
      </trkpt>
      <trkpt lat="44.81168" lon="5.12547">
        <ele>867.73</ele>
        <time>2021-12-05T09:08:51Z</time>
      </trkpt>
      <trkpt lat="44.81178" lon="5.12549">
        <ele>867.25</ele>
        <time>2021-12-05T09:09:02Z</time>
      </trkpt>
      <trkpt lat="44.81183" lon="5.12549">
        <ele>866.77</ele>
        <time>2021-12-05T09:09:06Z</time>
      </trkpt>
      <trkpt lat="44.81192" lon="5.12551">
        <ele>866.29</ele>
        <time>2021-12-05T09:09:17Z</time>
      </trkpt>
      <trkpt lat="44.81199" lon="5.12549">
        <ele>865.8</ele>
        <time>2021-12-05T09:09:24Z</time>
      </trkpt>
      <trkpt lat="44.8121" lon="5.1255">
        <ele>864.84</ele>
        <time>2021-12-05T09:09:35Z</time>
      </trkpt>
      <trkpt lat="44.81222" lon="5.12551">
        <ele>863.4</ele>
        <time>2021-12-05T09:09:47Z</time>
      </trkpt>
      <trkpt lat="44.81237" lon="5.12548">
        <ele>863.4</ele>
        <time>2021-12-05T09:09:59Z</time>
      </trkpt>
      <trkpt lat="44.81245" lon="5.12548">
        <ele>862.92</ele>
        <time>2021-12-05T09:10:09Z</time>
      </trkpt>
      <trkpt lat="44.81252" lon="5.12548">
        <ele>861.96</ele>
        <time>2021-12-05T09:10:17Z</time>
      </trkpt>
      <trkpt lat="44.81262" lon="5.12552">
        <ele>861.96</ele>
        <time>2021-12-05T09:10:29Z</time>
      </trkpt>
      <trkpt lat="44.81268" lon="5.12558">
        <ele>862.44</ele>
        <time>2021-12-05T09:10:38Z</time>
      </trkpt>
      <trkpt lat="44.81276" lon="5.1256">
        <ele>862.44</ele>
        <time>2021-12-05T09:10:49Z</time>
      </trkpt>
      <trkpt lat="44.81283" lon="5.12561">
        <ele>862.44</ele>
        <time>2021-12-05T09:10:58Z</time>
      </trkpt>
      <trkpt lat="44.8129" lon="5.12566">
        <ele>862.92</ele>
        <time>2021-12-05T09:11:09Z</time>
      </trkpt>
      <trkpt lat="44.81291" lon="5.12566">
        <ele>862.92</ele>
        <time>2021-12-05T09:11:24Z</time>
      </trkpt>
      <trkpt lat="44.81302" lon="5.12565">
        <ele>862.92</ele>
        <time>2021-12-05T09:11:35Z</time>
      </trkpt>
      <trkpt lat="44.81312" lon="5.12564">
        <ele>863.4</ele>
        <time>2021-12-05T09:11:47Z</time>
      </trkpt>
      <trkpt lat="44.81324" lon="5.12566">
        <ele>862.92</ele>
        <time>2021-12-05T09:12:01Z</time>
      </trkpt>
      <trkpt lat="44.81338" lon="5.12571">
        <ele>862.44</ele>
        <time>2021-12-05T09:12:18Z</time>
      </trkpt>
      <trkpt lat="44.81352" lon="5.1258">
        <ele>861.96</ele>
        <time>2021-12-05T09:12:33Z</time>
      </trkpt>
      <trkpt lat="44.81365" lon="5.12583">
        <ele>861.48</ele>
        <time>2021-12-05T09:12:48Z</time>
      </trkpt>
      <trkpt lat="44.81379" lon="5.12585">
        <ele>861</ele>
        <time>2021-12-05T09:13:03Z</time>
      </trkpt>
      <trkpt lat="44.8138" lon="5.12585">
        <ele>861.48</ele>
        <time>2021-12-05T09:13:04Z</time>
      </trkpt>
      <trkpt lat="44.8139" lon="5.1259">
        <ele>860.52</ele>
        <time>2021-12-05T09:13:16Z</time>
      </trkpt>
      <trkpt lat="44.81402" lon="5.12592">
        <ele>860.52</ele>
        <time>2021-12-05T09:13:30Z</time>
      </trkpt>
      <trkpt lat="44.81415" lon="5.12595">
        <ele>860.04</ele>
        <time>2021-12-05T09:13:41Z</time>
      </trkpt>
      <trkpt lat="44.81421" lon="5.12597">
        <ele>859.56</ele>
        <time>2021-12-05T09:13:48Z</time>
      </trkpt>
      <trkpt lat="44.81425" lon="5.12598">
        <ele>859.56</ele>
        <time>2021-12-05T09:13:51Z</time>
      </trkpt>
      <trkpt lat="44.81436" lon="5.12598">
        <ele>859.56</ele>
        <time>2021-12-05T09:14:02Z</time>
      </trkpt>
      <trkpt lat="44.81445" lon="5.12598">
        <ele>859.56</ele>
        <time>2021-12-05T09:14:16Z</time>
      </trkpt>
      <trkpt lat="44.81448" lon="5.126">
        <ele>859.08</ele>
        <time>2021-12-05T09:14:21Z</time>
      </trkpt>
      <trkpt lat="44.8146" lon="5.12606">
        <ele>858.59</ele>
        <time>2021-12-05T09:14:33Z</time>
      </trkpt>
      <trkpt lat="44.81467" lon="5.12606">
        <ele>858.11</ele>
        <time>2021-12-05T09:14:40Z</time>
      </trkpt>
      <trkpt lat="44.81471" lon="5.12608">
        <ele>858.11</ele>
        <time>2021-12-05T09:14:45Z</time>
      </trkpt>
      <trkpt lat="44.81478" lon="5.12614">
        <ele>856.67</ele>
        <time>2021-12-05T09:14:54Z</time>
      </trkpt>
      <trkpt lat="44.8149" lon="5.12613">
        <ele>856.19</ele>
        <time>2021-12-05T09:15:06Z</time>
      </trkpt>
      <trkpt lat="44.815" lon="5.12618">
        <ele>855.71</ele>
        <time>2021-12-05T09:15:16Z</time>
      </trkpt>
      <trkpt lat="44.8151" lon="5.12621">
        <ele>855.71</ele>
        <time>2021-12-05T09:15:26Z</time>
      </trkpt>
      <trkpt lat="44.81517" lon="5.12626">
        <ele>856.19</ele>
        <time>2021-12-05T09:15:35Z</time>
      </trkpt>
      <trkpt lat="44.81524" lon="5.12626">
        <ele>856.19</ele>
        <time>2021-12-05T09:15:44Z</time>
      </trkpt>
      <trkpt lat="44.81536" lon="5.12619">
        <ele>857.15</ele>
        <time>2021-12-05T09:15:55Z</time>
      </trkpt>
      <trkpt lat="44.81544" lon="5.12621">
        <ele>857.63</ele>
        <time>2021-12-05T09:16:05Z</time>
      </trkpt>
      <trkpt lat="44.81553" lon="5.12624">
        <ele>857.63</ele>
        <time>2021-12-05T09:16:15Z</time>
      </trkpt>
      <trkpt lat="44.81557" lon="5.12625">
        <ele>858.11</ele>
        <time>2021-12-05T09:16:20Z</time>
      </trkpt>
      <trkpt lat="44.81569" lon="5.12628">
        <ele>858.11</ele>
        <time>2021-12-05T09:16:32Z</time>
      </trkpt>
      <trkpt lat="44.8158" lon="5.12631">
        <ele>858.11</ele>
        <time>2021-12-05T09:16:42Z</time>
      </trkpt>
      <trkpt lat="44.81582" lon="5.12632">
        <ele>858.59</ele>
        <time>2021-12-05T09:16:44Z</time>
      </trkpt>
      <trkpt lat="44.81595" lon="5.12637">
        <ele>858.11</ele>
        <time>2021-12-05T09:16:56Z</time>
      </trkpt>
      <trkpt lat="44.81604" lon="5.1264">
        <ele>858.59</ele>
        <time>2021-12-05T09:17:06Z</time>
      </trkpt>
      <trkpt lat="44.81613" lon="5.12643">
        <ele>858.59</ele>
        <time>2021-12-05T09:17:15Z</time>
      </trkpt>
      <trkpt lat="44.81624" lon="5.12648">
        <ele>858.11</ele>
        <time>2021-12-05T09:17:26Z</time>
      </trkpt>
      <trkpt lat="44.81629" lon="5.12648">
        <ele>858.59</ele>
        <time>2021-12-05T09:17:30Z</time>
      </trkpt>
      <trkpt lat="44.81634" lon="5.12647">
        <ele>858.59</ele>
        <time>2021-12-05T09:17:35Z</time>
      </trkpt>
      <trkpt lat="44.81646" lon="5.1265">
        <ele>859.08</ele>
        <time>2021-12-05T09:17:47Z</time>
      </trkpt>
      <trkpt lat="44.81657" lon="5.12652">
        <ele>859.56</ele>
        <time>2021-12-05T09:17:57Z</time>
      </trkpt>
      <trkpt lat="44.81668" lon="5.12655">
        <ele>859.56</ele>
        <time>2021-12-05T09:18:08Z</time>
      </trkpt>
      <trkpt lat="44.81679" lon="5.12657">
        <ele>859.56</ele>
        <time>2021-12-05T09:18:18Z</time>
      </trkpt>
      <trkpt lat="44.81688" lon="5.12662">
        <ele>859.56</ele>
        <time>2021-12-05T09:18:28Z</time>
      </trkpt>
      <trkpt lat="44.81697" lon="5.12665">
        <ele>860.04</ele>
        <time>2021-12-05T09:18:37Z</time>
      </trkpt>
      <trkpt lat="44.81703" lon="5.12669">
        <ele>860.04</ele>
        <time>2021-12-05T09:18:45Z</time>
      </trkpt>
      <trkpt lat="44.81715" lon="5.12676">
        <ele>860.52</ele>
        <time>2021-12-05T09:18:57Z</time>
      </trkpt>
      <trkpt lat="44.81727" lon="5.12681">
        <ele>860.52</ele>
        <time>2021-12-05T09:19:09Z</time>
      </trkpt>
      <trkpt lat="44.81736" lon="5.12681">
        <ele>861.96</ele>
        <time>2021-12-05T09:19:19Z</time>
      </trkpt>
      <trkpt lat="44.81747" lon="5.12684">
        <ele>861.96</ele>
        <time>2021-12-05T09:19:29Z</time>
      </trkpt>
      <trkpt lat="44.81761" lon="5.12684">
        <ele>862.92</ele>
        <time>2021-12-05T09:19:41Z</time>
      </trkpt>
      <trkpt lat="44.81775" lon="5.12684">
        <ele>863.4</ele>
        <time>2021-12-05T09:19:53Z</time>
      </trkpt>
      <trkpt lat="44.81787" lon="5.12683">
        <ele>863.4</ele>
        <time>2021-12-05T09:20:04Z</time>
      </trkpt>
      <trkpt lat="44.81799" lon="5.12681">
        <ele>864.36</ele>
        <time>2021-12-05T09:20:15Z</time>
      </trkpt>
      <trkpt lat="44.8181" lon="5.12681">
        <ele>864.36</ele>
        <time>2021-12-05T09:20:25Z</time>
      </trkpt>
      <trkpt lat="44.81822" lon="5.12682">
        <ele>865.8</ele>
        <time>2021-12-05T09:20:37Z</time>
      </trkpt>
      <trkpt lat="44.81833" lon="5.12682">
        <ele>865.8</ele>
        <time>2021-12-05T09:20:47Z</time>
      </trkpt>
      <trkpt lat="44.81839" lon="5.12684">
        <ele>866.77</ele>
        <time>2021-12-05T09:20:53Z</time>
      </trkpt>
      <trkpt lat="44.8185" lon="5.12682">
        <ele>866.77</ele>
        <time>2021-12-05T09:21:05Z</time>
      </trkpt>
      <trkpt lat="44.81858" lon="5.1268">
        <ele>867.25</ele>
        <time>2021-12-05T09:21:17Z</time>
      </trkpt>
      <trkpt lat="44.81865" lon="5.1268">
        <ele>868.21</ele>
        <time>2021-12-05T09:21:26Z</time>
      </trkpt>
      <trkpt lat="44.81874" lon="5.12683">
        <ele>868.69</ele>
        <time>2021-12-05T09:21:37Z</time>
      </trkpt>
      <trkpt lat="44.81886" lon="5.12689">
        <ele>869.17</ele>
        <time>2021-12-05T09:21:48Z</time>
      </trkpt>
      <trkpt lat="44.81899" lon="5.12693">
        <ele>869.65</ele>
        <time>2021-12-05T09:22:00Z</time>
      </trkpt>
      <trkpt lat="44.8191" lon="5.12693">
        <ele>870.61</ele>
        <time>2021-12-05T09:22:11Z</time>
      </trkpt>
      <trkpt lat="44.81911" lon="5.12693">
        <ele>870.13</ele>
        <time>2021-12-05T09:22:12Z</time>
      </trkpt>
      <trkpt lat="44.81921" lon="5.12691">
        <ele>871.09</ele>
        <time>2021-12-05T09:22:25Z</time>
      </trkpt>
      <trkpt lat="44.81921" lon="5.12691">
        <ele>871.09</ele>
        <time>2021-12-05T09:22:46Z</time>
      </trkpt>
      <trkpt lat="44.81922" lon="5.12691">
        <ele>871.09</ele>
        <time>2021-12-05T09:23:04Z</time>
      </trkpt>
      <trkpt lat="44.81928" lon="5.1269">
        <ele>871.57</ele>
        <time>2021-12-05T09:23:14Z</time>
      </trkpt>
      <trkpt lat="44.81935" lon="5.1269">
        <ele>872.05</ele>
        <time>2021-12-05T09:23:23Z</time>
      </trkpt>
      <trkpt lat="44.81943" lon="5.12689">
        <ele>872.53</ele>
        <time>2021-12-05T09:23:33Z</time>
      </trkpt>
      <trkpt lat="44.81955" lon="5.12687">
        <ele>873.01</ele>
        <time>2021-12-05T09:23:42Z</time>
      </trkpt>
      <trkpt lat="44.81966" lon="5.12685">
        <ele>873.5</ele>
        <time>2021-12-05T09:23:52Z</time>
      </trkpt>
      <trkpt lat="44.8197" lon="5.12685">
        <ele>873.5</ele>
        <time>2021-12-05T09:23:56Z</time>
      </trkpt>
      <trkpt lat="44.81981" lon="5.12686">
        <ele>874.94</ele>
        <time>2021-12-05T09:24:08Z</time>
      </trkpt>
      <trkpt lat="44.81993" lon="5.12687">
        <ele>874.46</ele>
        <time>2021-12-05T09:24:19Z</time>
      </trkpt>
      <trkpt lat="44.82005" lon="5.12686">
        <ele>875.9</ele>
        <time>2021-12-05T09:24:31Z</time>
      </trkpt>
      <trkpt lat="44.82015" lon="5.12683">
        <ele>875.9</ele>
        <time>2021-12-05T09:24:41Z</time>
      </trkpt>
      <trkpt lat="44.82024" lon="5.1268">
        <ele>876.86</ele>
        <time>2021-12-05T09:24:51Z</time>
      </trkpt>
      <trkpt lat="44.8203" lon="5.12676">
        <ele>876.38</ele>
        <time>2021-12-05T09:24:57Z</time>
      </trkpt>
      <trkpt lat="44.8203" lon="5.12673">
        <ele>877.34</ele>
        <time>2021-12-05T09:24:59Z</time>
      </trkpt>
      <trkpt lat="44.82035" lon="5.12666">
        <ele>877.34</ele>
        <time>2021-12-05T09:25:07Z</time>
      </trkpt>
      <trkpt lat="44.82045" lon="5.12662">
        <ele>877.34</ele>
        <time>2021-12-05T09:25:17Z</time>
      </trkpt>
      <trkpt lat="44.82049" lon="5.12663">
        <ele>877.82</ele>
        <time>2021-12-05T09:25:22Z</time>
      </trkpt>
      <trkpt lat="44.82056" lon="5.12663">
        <ele>878.3</ele>
        <time>2021-12-05T09:25:31Z</time>
      </trkpt>
      <trkpt lat="44.82069" lon="5.12661">
        <ele>879.26</ele>
        <time>2021-12-05T09:25:42Z</time>
      </trkpt>
      <trkpt lat="44.82082" lon="5.12661">
        <ele>879.74</ele>
        <time>2021-12-05T09:25:54Z</time>
      </trkpt>
      <trkpt lat="44.8209" lon="5.1266">
        <ele>880.71</ele>
        <time>2021-12-05T09:26:04Z</time>
      </trkpt>
      <trkpt lat="44.82092" lon="5.12659">
        <ele>880.22</ele>
        <time>2021-12-05T09:26:07Z</time>
      </trkpt>
      <trkpt lat="44.82104" lon="5.12661">
        <ele>881.19</ele>
        <time>2021-12-05T09:26:19Z</time>
      </trkpt>
      <trkpt lat="44.82106" lon="5.12661">
        <ele>881.67</ele>
        <time>2021-12-05T09:26:21Z</time>
      </trkpt>
      <trkpt lat="44.82118" lon="5.12659">
        <ele>881.67</ele>
        <time>2021-12-05T09:26:34Z</time>
      </trkpt>
      <trkpt lat="44.8213" lon="5.12658">
        <ele>883.59</ele>
        <time>2021-12-05T09:26:46Z</time>
      </trkpt>
      <trkpt lat="44.82142" lon="5.12655">
        <ele>884.55</ele>
        <time>2021-12-05T09:26:58Z</time>
      </trkpt>
      <trkpt lat="44.82152" lon="5.12649">
        <ele>885.99</ele>
        <time>2021-12-05T09:27:10Z</time>
      </trkpt>
      <trkpt lat="44.82161" lon="5.12647">
        <ele>886.47</ele>
        <time>2021-12-05T09:27:19Z</time>
      </trkpt>
      <trkpt lat="44.8217" lon="5.12644">
        <ele>887.43</ele>
        <time>2021-12-05T09:27:29Z</time>
      </trkpt>
      <trkpt lat="44.8218" lon="5.12642">
        <ele>888.88</ele>
        <time>2021-12-05T09:27:40Z</time>
      </trkpt>
      <trkpt lat="44.82192" lon="5.1264">
        <ele>890.32</ele>
        <time>2021-12-05T09:27:53Z</time>
      </trkpt>
      <trkpt lat="44.82203" lon="5.12641">
        <ele>891.76</ele>
        <time>2021-12-05T09:28:04Z</time>
      </trkpt>
      <trkpt lat="44.8221" lon="5.1264">
        <ele>892.24</ele>
        <time>2021-12-05T09:28:16Z</time>
      </trkpt>
      <trkpt lat="44.8222" lon="5.12639">
        <ele>893.68</ele>
        <time>2021-12-05T09:28:27Z</time>
      </trkpt>
      <trkpt lat="44.82231" lon="5.12636">
        <ele>894.64</ele>
        <time>2021-12-05T09:28:40Z</time>
      </trkpt>
      <trkpt lat="44.82231" lon="5.12636">
        <ele>894.64</ele>
        <time>2021-12-05T09:28:46Z</time>
      </trkpt>
      <trkpt lat="44.82234" lon="5.12636">
        <ele>895.12</ele>
        <time>2021-12-05T09:28:51Z</time>
      </trkpt>
      <trkpt lat="44.82238" lon="5.12633">
        <ele>895.61</ele>
        <time>2021-12-05T09:28:56Z</time>
      </trkpt>
      <trkpt lat="44.8225" lon="5.12628">
        <ele>897.05</ele>
        <time>2021-12-05T09:29:09Z</time>
      </trkpt>
      <trkpt lat="44.82251" lon="5.12627">
        <ele>897.05</ele>
        <time>2021-12-05T09:29:10Z</time>
      </trkpt>
      <trkpt lat="44.82263" lon="5.1262">
        <ele>898.49</ele>
        <time>2021-12-05T09:29:22Z</time>
      </trkpt>
      <trkpt lat="44.82273" lon="5.12614">
        <ele>899.93</ele>
        <time>2021-12-05T09:29:34Z</time>
      </trkpt>
      <trkpt lat="44.82286" lon="5.12607">
        <ele>901.37</ele>
        <time>2021-12-05T09:29:47Z</time>
      </trkpt>
      <trkpt lat="44.82296" lon="5.12605">
        <ele>902.82</ele>
        <time>2021-12-05T09:29:59Z</time>
      </trkpt>
      <trkpt lat="44.82307" lon="5.12601">
        <ele>904.26</ele>
        <time>2021-12-05T09:30:11Z</time>
      </trkpt>
      <trkpt lat="44.82322" lon="5.12598">
        <ele>905.22</ele>
        <time>2021-12-05T09:30:24Z</time>
      </trkpt>
      <trkpt lat="44.82336" lon="5.12594">
        <ele>905.7</ele>
        <time>2021-12-05T09:30:37Z</time>
      </trkpt>
      <trkpt lat="44.82339" lon="5.12594">
        <ele>905.7</ele>
        <time>2021-12-05T09:30:40Z</time>
      </trkpt>
      <trkpt lat="44.82345" lon="5.12594">
        <ele>907.14</ele>
        <time>2021-12-05T09:30:46Z</time>
      </trkpt>
      <trkpt lat="44.82353" lon="5.12593">
        <ele>907.14</ele>
        <time>2021-12-05T09:31:01Z</time>
      </trkpt>
      <trkpt lat="44.82362" lon="5.12591">
        <ele>907.62</ele>
        <time>2021-12-05T09:31:17Z</time>
      </trkpt>
      <trkpt lat="44.82364" lon="5.12589">
        <ele>907.14</ele>
        <time>2021-12-05T09:31:32Z</time>
      </trkpt>
      <trkpt lat="44.82364" lon="5.12589">
        <ele>907.14</ele>
        <time>2021-12-05T09:31:59Z</time>
      </trkpt>
      <trkpt lat="44.82364" lon="5.12589">
        <ele>907.14</ele>
        <time>2021-12-05T09:32:17Z</time>
      </trkpt>
      <trkpt lat="44.82364" lon="5.12588">
        <ele>907.14</ele>
        <time>2021-12-05T09:32:44Z</time>
      </trkpt>
      <trkpt lat="44.82364" lon="5.12588">
        <ele>906.66</ele>
        <time>2021-12-05T09:32:49Z</time>
      </trkpt>
      <trkpt lat="44.82366" lon="5.12588">
        <ele>907.14</ele>
        <time>2021-12-05T09:32:52Z</time>
      </trkpt>
      <trkpt lat="44.8238" lon="5.12587">
        <ele>907.14</ele>
        <time>2021-12-05T09:33:06Z</time>
      </trkpt>
      <trkpt lat="44.82393" lon="5.12586">
        <ele>907.62</ele>
        <time>2021-12-05T09:33:18Z</time>
      </trkpt>
      <trkpt lat="44.82409" lon="5.12584">
        <ele>907.62</ele>
        <time>2021-12-05T09:33:33Z</time>
      </trkpt>
      <trkpt lat="44.82419" lon="5.12586">
        <ele>908.58</ele>
        <time>2021-12-05T09:33:44Z</time>
      </trkpt>
      <trkpt lat="44.82428" lon="5.12594">
        <ele>909.54</ele>
        <time>2021-12-05T09:33:55Z</time>
      </trkpt>
      <trkpt lat="44.82443" lon="5.12592">
        <ele>910.51</ele>
        <time>2021-12-05T09:34:08Z</time>
      </trkpt>
      <trkpt lat="44.82445" lon="5.1259">
        <ele>910.99</ele>
        <time>2021-12-05T09:34:11Z</time>
      </trkpt>
      <trkpt lat="44.82451" lon="5.12587">
        <ele>910.99</ele>
        <time>2021-12-05T09:34:16Z</time>
      </trkpt>
      <trkpt lat="44.82467" lon="5.12582">
        <ele>912.43</ele>
        <time>2021-12-05T09:34:29Z</time>
      </trkpt>
      <trkpt lat="44.82477" lon="5.12583">
        <ele>913.39</ele>
        <time>2021-12-05T09:34:40Z</time>
      </trkpt>
      <trkpt lat="44.82489" lon="5.12585">
        <ele>913.87</ele>
        <time>2021-12-05T09:34:52Z</time>
      </trkpt>
      <trkpt lat="44.82499" lon="5.12585">
        <ele>914.83</ele>
        <time>2021-12-05T09:35:02Z</time>
      </trkpt>
      <trkpt lat="44.82503" lon="5.12587">
        <ele>915.31</ele>
        <time>2021-12-05T09:35:08Z</time>
      </trkpt>
      <trkpt lat="44.82513" lon="5.12588">
        <ele>916.27</ele>
        <time>2021-12-05T09:35:19Z</time>
      </trkpt>
      <trkpt lat="44.82519" lon="5.12588">
        <ele>916.75</ele>
        <time>2021-12-05T09:35:31Z</time>
      </trkpt>
      <trkpt lat="44.82522" lon="5.12587">
        <ele>917.24</ele>
        <time>2021-12-05T09:35:34Z</time>
      </trkpt>
      <trkpt lat="44.82528" lon="5.12586">
        <ele>917.24</ele>
        <time>2021-12-05T09:35:40Z</time>
      </trkpt>
      <trkpt lat="44.82546" lon="5.12579">
        <ele>917.24</ele>
        <time>2021-12-05T09:35:53Z</time>
      </trkpt>
      <trkpt lat="44.82553" lon="5.12575">
        <ele>916.75</ele>
        <time>2021-12-05T09:36:00Z</time>
      </trkpt>
      <trkpt lat="44.82569" lon="5.12565">
        <ele>916.75</ele>
        <time>2021-12-05T09:36:13Z</time>
      </trkpt>
      <trkpt lat="44.8257" lon="5.12564">
        <ele>916.75</ele>
        <time>2021-12-05T09:36:15Z</time>
      </trkpt>
      <trkpt lat="44.82572" lon="5.12561">
        <ele>916.27</ele>
        <time>2021-12-05T09:36:17Z</time>
      </trkpt>
      <trkpt lat="44.82585" lon="5.12551">
        <ele>915.31</ele>
        <time>2021-12-05T09:36:29Z</time>
      </trkpt>
      <trkpt lat="44.82589" lon="5.1255">
        <ele>914.83</ele>
        <time>2021-12-05T09:36:41Z</time>
      </trkpt>
      <trkpt lat="44.82592" lon="5.12546">
        <ele>914.83</ele>
        <time>2021-12-05T09:36:59Z</time>
      </trkpt>
      <trkpt lat="44.82601" lon="5.1254">
        <ele>915.31</ele>
        <time>2021-12-05T09:37:10Z</time>
      </trkpt>
      <trkpt lat="44.82614" lon="5.12536">
        <ele>915.31</ele>
        <time>2021-12-05T09:37:23Z</time>
      </trkpt>
      <trkpt lat="44.82618" lon="5.12535">
        <ele>915.31</ele>
        <time>2021-12-05T09:37:27Z</time>
      </trkpt>
      <trkpt lat="44.82628" lon="5.12528">
        <ele>915.31</ele>
        <time>2021-12-05T09:37:38Z</time>
      </trkpt>
      <trkpt lat="44.82639" lon="5.12518">
        <ele>914.83</ele>
        <time>2021-12-05T09:37:51Z</time>
      </trkpt>
      <trkpt lat="44.82642" lon="5.12513">
        <ele>914.83</ele>
        <time>2021-12-05T09:37:55Z</time>
      </trkpt>
      <trkpt lat="44.82654" lon="5.12499">
        <ele>914.35</ele>
        <time>2021-12-05T09:38:08Z</time>
      </trkpt>
      <trkpt lat="44.82655" lon="5.12498">
        <ele>914.35</ele>
        <time>2021-12-05T09:38:09Z</time>
      </trkpt>
      <trkpt lat="44.82671" lon="5.12479">
        <ele>913.87</ele>
        <time>2021-12-05T09:38:24Z</time>
      </trkpt>
      <trkpt lat="44.82675" lon="5.12475">
        <ele>913.87</ele>
        <time>2021-12-05T09:38:29Z</time>
      </trkpt>
      <trkpt lat="44.82677" lon="5.12469">
        <ele>912.43</ele>
        <time>2021-12-05T09:38:33Z</time>
      </trkpt>
      <trkpt lat="44.82689" lon="5.12455">
        <ele>910.99</ele>
        <time>2021-12-05T09:38:46Z</time>
      </trkpt>
      <trkpt lat="44.8269" lon="5.12454">
        <ele>910.99</ele>
        <time>2021-12-05T09:38:48Z</time>
      </trkpt>
      <trkpt lat="44.82697" lon="5.12446">
        <ele>909.54</ele>
        <time>2021-12-05T09:38:56Z</time>
      </trkpt>
      <trkpt lat="44.82696" lon="5.12443">
        <ele>909.06</ele>
        <time>2021-12-05T09:38:58Z</time>
      </trkpt>
      <trkpt lat="44.82693" lon="5.12437">
        <ele>907.62</ele>
        <time>2021-12-05T09:39:03Z</time>
      </trkpt>
      <trkpt lat="44.8269" lon="5.12426">
        <ele>905.7</ele>
        <time>2021-12-05T09:39:11Z</time>
      </trkpt>
      <trkpt lat="44.82694" lon="5.12412">
        <ele>903.3</ele>
        <time>2021-12-05T09:39:23Z</time>
      </trkpt>
      <trkpt lat="44.82696" lon="5.12404">
        <ele>903.3</ele>
        <time>2021-12-05T09:39:31Z</time>
      </trkpt>
      <trkpt lat="44.82697" lon="5.124">
        <ele>901.85</ele>
        <time>2021-12-05T09:39:35Z</time>
      </trkpt>
      <trkpt lat="44.82712" lon="5.12392">
        <ele>899.45</ele>
        <time>2021-12-05T09:39:48Z</time>
      </trkpt>
      <trkpt lat="44.82718" lon="5.12387">
        <ele>898.97</ele>
        <time>2021-12-05T09:39:54Z</time>
      </trkpt>
      <trkpt lat="44.82727" lon="5.12384">
        <ele>897.53</ele>
        <time>2021-12-05T09:40:02Z</time>
      </trkpt>
      <trkpt lat="44.82737" lon="5.12379">
        <ele>895.61</ele>
        <time>2021-12-05T09:40:11Z</time>
      </trkpt>
      <trkpt lat="44.82751" lon="5.1237">
        <ele>894.64</ele>
        <time>2021-12-05T09:40:23Z</time>
      </trkpt>
      <trkpt lat="44.82761" lon="5.12359">
        <ele>893.68</ele>
        <time>2021-12-05T09:40:33Z</time>
      </trkpt>
      <trkpt lat="44.82766" lon="5.12354">
        <ele>893.2</ele>
        <time>2021-12-05T09:40:38Z</time>
      </trkpt>
      <trkpt lat="44.8277" lon="5.12351">
        <ele>893.2</ele>
        <time>2021-12-05T09:40:42Z</time>
      </trkpt>
      <trkpt lat="44.82782" lon="5.12343">
        <ele>892.72</ele>
        <time>2021-12-05T09:40:54Z</time>
      </trkpt>
      <trkpt lat="44.82795" lon="5.12333">
        <ele>892.72</ele>
        <time>2021-12-05T09:41:08Z</time>
      </trkpt>
      <trkpt lat="44.82802" lon="5.12326">
        <ele>892.24</ele>
        <time>2021-12-05T09:41:14Z</time>
      </trkpt>
      <trkpt lat="44.82807" lon="5.12322">
        <ele>892.24</ele>
        <time>2021-12-05T09:41:18Z</time>
      </trkpt>
      <trkpt lat="44.82818" lon="5.12314">
        <ele>893.2</ele>
        <time>2021-12-05T09:41:30Z</time>
      </trkpt>
      <trkpt lat="44.82826" lon="5.12304">
        <ele>893.2</ele>
        <time>2021-12-05T09:41:41Z</time>
      </trkpt>
      <trkpt lat="44.82833" lon="5.12296">
        <ele>893.2</ele>
        <time>2021-12-05T09:41:47Z</time>
      </trkpt>
      <trkpt lat="44.82846" lon="5.12281">
        <ele>893.68</ele>
        <time>2021-12-05T09:41:59Z</time>
      </trkpt>
      <trkpt lat="44.82852" lon="5.12273">
        <ele>894.64</ele>
        <time>2021-12-05T09:42:06Z</time>
      </trkpt>
      <trkpt lat="44.82856" lon="5.12258">
        <ele>895.12</ele>
        <time>2021-12-05T09:42:18Z</time>
      </trkpt>
      <trkpt lat="44.82865" lon="5.12239">
        <ele>896.09</ele>
        <time>2021-12-05T09:42:31Z</time>
      </trkpt>
      <trkpt lat="44.82863" lon="5.12231">
        <ele>896.09</ele>
        <time>2021-12-05T09:42:40Z</time>
      </trkpt>
      <trkpt lat="44.82867" lon="5.12207">
        <ele>897.05</ele>
        <time>2021-12-05T09:42:54Z</time>
      </trkpt>
      <trkpt lat="44.82865" lon="5.1219">
        <ele>898.49</ele>
        <time>2021-12-05T09:43:08Z</time>
      </trkpt>
      <trkpt lat="44.82868" lon="5.12171">
        <ele>898.97</ele>
        <time>2021-12-05T09:43:23Z</time>
      </trkpt>
      <trkpt lat="44.82867" lon="5.12163">
        <ele>899.45</ele>
        <time>2021-12-05T09:43:36Z</time>
      </trkpt>
      <trkpt lat="44.82867" lon="5.12161">
        <ele>899.45</ele>
        <time>2021-12-05T09:43:37Z</time>
      </trkpt>
      <trkpt lat="44.8287" lon="5.1214">
        <ele>900.41</ele>
        <time>2021-12-05T09:43:50Z</time>
      </trkpt>
      <trkpt lat="44.82869" lon="5.12123">
        <ele>901.85</ele>
        <time>2021-12-05T09:44:02Z</time>
      </trkpt>
      <trkpt lat="44.82873" lon="5.12106">
        <ele>901.85</ele>
        <time>2021-12-05T09:44:14Z</time>
      </trkpt>
      <trkpt lat="44.82874" lon="5.12092">
        <ele>902.82</ele>
        <time>2021-12-05T09:44:22Z</time>
      </trkpt>
      <trkpt lat="44.82874" lon="5.12071">
        <ele>903.3</ele>
        <time>2021-12-05T09:44:34Z</time>
      </trkpt>
      <trkpt lat="44.82877" lon="5.12049">
        <ele>904.26</ele>
        <time>2021-12-05T09:44:49Z</time>
      </trkpt>
      <trkpt lat="44.82877" lon="5.12039">
        <ele>904.74</ele>
        <time>2021-12-05T09:44:55Z</time>
      </trkpt>
      <trkpt lat="44.82876" lon="5.12022">
        <ele>905.22</ele>
        <time>2021-12-05T09:45:05Z</time>
      </trkpt>
      <trkpt lat="44.82872" lon="5.11997">
        <ele>906.18</ele>
        <time>2021-12-05T09:45:20Z</time>
      </trkpt>
      <trkpt lat="44.8287" lon="5.11981">
        <ele>905.7</ele>
        <time>2021-12-05T09:45:30Z</time>
      </trkpt>
      <trkpt lat="44.82868" lon="5.11972">
        <ele>905.7</ele>
        <time>2021-12-05T09:45:34Z</time>
      </trkpt>
      <trkpt lat="44.82862" lon="5.11948">
        <ele>904.74</ele>
        <time>2021-12-05T09:45:49Z</time>
      </trkpt>
      <trkpt lat="44.82862" lon="5.11948">
        <ele>904.74</ele>
        <time>2021-12-05T09:45:50Z</time>
      </trkpt>
      <trkpt lat="44.82861" lon="5.11941">
        <ele>904.26</ele>
        <time>2021-12-05T09:45:54Z</time>
      </trkpt>
      <trkpt lat="44.82852" lon="5.11919">
        <ele>902.82</ele>
        <time>2021-12-05T09:46:08Z</time>
      </trkpt>
      <trkpt lat="44.8285" lon="5.11915">
        <ele>902.82</ele>
        <time>2021-12-05T09:46:11Z</time>
      </trkpt>
      <trkpt lat="44.82839" lon="5.11893">
        <ele>901.37</ele>
        <time>2021-12-05T09:46:26Z</time>
      </trkpt>
      <trkpt lat="44.82824" lon="5.11873">
        <ele>899.45</ele>
        <time>2021-12-05T09:46:41Z</time>
      </trkpt>
      <trkpt lat="44.82813" lon="5.11859">
        <ele>898.01</ele>
        <time>2021-12-05T09:46:53Z</time>
      </trkpt>
      <trkpt lat="44.82799" lon="5.11844">
        <ele>896.57</ele>
        <time>2021-12-05T09:47:07Z</time>
      </trkpt>
      <trkpt lat="44.82796" lon="5.11839">
        <ele>896.09</ele>
        <time>2021-12-05T09:47:11Z</time>
      </trkpt>
      <trkpt lat="44.82793" lon="5.11835">
        <ele>895.61</ele>
        <time>2021-12-05T09:47:14Z</time>
      </trkpt>
      <trkpt lat="44.8278" lon="5.11818">
        <ele>894.16</ele>
        <time>2021-12-05T09:47:27Z</time>
      </trkpt>
      <trkpt lat="44.82771" lon="5.11802">
        <ele>892.72</ele>
        <time>2021-12-05T09:47:38Z</time>
      </trkpt>
      <trkpt lat="44.82767" lon="5.11798">
        <ele>892.72</ele>
        <time>2021-12-05T09:47:56Z</time>
      </trkpt>
      <trkpt lat="44.82765" lon="5.11797">
        <ele>892.24</ele>
        <time>2021-12-05T09:48:14Z</time>
      </trkpt>
      <trkpt lat="44.82755" lon="5.11786">
        <ele>892.24</ele>
        <time>2021-12-05T09:48:27Z</time>
      </trkpt>
      <trkpt lat="44.82742" lon="5.11777">
        <ele>892.24</ele>
        <time>2021-12-05T09:48:39Z</time>
      </trkpt>
      <trkpt lat="44.82735" lon="5.11772">
        <ele>892.24</ele>
        <time>2021-12-05T09:48:45Z</time>
      </trkpt>
      <trkpt lat="44.82723" lon="5.11765">
        <ele>892.24</ele>
        <time>2021-12-05T09:48:55Z</time>
      </trkpt>
      <trkpt lat="44.82705" lon="5.11758">
        <ele>891.76</ele>
        <time>2021-12-05T09:49:08Z</time>
      </trkpt>
      <trkpt lat="44.8269" lon="5.11753">
        <ele>891.28</ele>
        <time>2021-12-05T09:49:19Z</time>
      </trkpt>
      <trkpt lat="44.82675" lon="5.1175">
        <ele>891.28</ele>
        <time>2021-12-05T09:49:30Z</time>
      </trkpt>
      <trkpt lat="44.82663" lon="5.11748">
        <ele>891.28</ele>
        <time>2021-12-05T09:49:42Z</time>
      </trkpt>
      <trkpt lat="44.82652" lon="5.11752">
        <ele>891.28</ele>
        <time>2021-12-05T09:49:56Z</time>
      </trkpt>
      <trkpt lat="44.8264" lon="5.11754">
        <ele>891.28</ele>
        <time>2021-12-05T09:50:06Z</time>
      </trkpt>
      <trkpt lat="44.82626" lon="5.1176">
        <ele>892.24</ele>
        <time>2021-12-05T09:50:19Z</time>
      </trkpt>
      <trkpt lat="44.82614" lon="5.11773">
        <ele>892.72</ele>
        <time>2021-12-05T09:50:33Z</time>
      </trkpt>
      <trkpt lat="44.82611" lon="5.11775">
        <ele>892.24</ele>
        <time>2021-12-05T09:50:37Z</time>
      </trkpt>
      <trkpt lat="44.82609" lon="5.11775">
        <ele>892.72</ele>
        <time>2021-12-05T09:50:39Z</time>
      </trkpt>
      <trkpt lat="44.82607" lon="5.11775">
        <ele>892.24</ele>
        <time>2021-12-05T09:50:41Z</time>
      </trkpt>
      <trkpt lat="44.82598" lon="5.11779">
        <ele>893.2</ele>
        <time>2021-12-05T09:50:51Z</time>
      </trkpt>
      <trkpt lat="44.82586" lon="5.1178">
        <ele>892.72</ele>
        <time>2021-12-05T09:51:03Z</time>
      </trkpt>
      <trkpt lat="44.82571" lon="5.11783">
        <ele>894.16</ele>
        <time>2021-12-05T09:51:14Z</time>
      </trkpt>
      <trkpt lat="44.82567" lon="5.11785">
        <ele>895.12</ele>
        <time>2021-12-05T09:51:18Z</time>
      </trkpt>
      <trkpt lat="44.82558" lon="5.1179">
        <ele>895.61</ele>
        <time>2021-12-05T09:51:26Z</time>
      </trkpt>
      <trkpt lat="44.82555" lon="5.11795">
        <ele>896.09</ele>
        <time>2021-12-05T09:51:30Z</time>
      </trkpt>
      <trkpt lat="44.82542" lon="5.11802">
        <ele>897.05</ele>
        <time>2021-12-05T09:51:41Z</time>
      </trkpt>
      <trkpt lat="44.82537" lon="5.11806">
        <ele>897.05</ele>
        <time>2021-12-05T09:51:46Z</time>
      </trkpt>
      <trkpt lat="44.82524" lon="5.11811">
        <ele>897.53</ele>
        <time>2021-12-05T09:51:57Z</time>
      </trkpt>
      <trkpt lat="44.82514" lon="5.11815">
        <ele>898.49</ele>
        <time>2021-12-05T09:52:06Z</time>
      </trkpt>
      <trkpt lat="44.82499" lon="5.11817">
        <ele>898.49</ele>
        <time>2021-12-05T09:52:18Z</time>
      </trkpt>
      <trkpt lat="44.82493" lon="5.11816">
        <ele>898.97</ele>
        <time>2021-12-05T09:52:24Z</time>
      </trkpt>
      <trkpt lat="44.82481" lon="5.11816">
        <ele>899.93</ele>
        <time>2021-12-05T09:52:35Z</time>
      </trkpt>
      <trkpt lat="44.82469" lon="5.11808">
        <ele>899.93</ele>
        <time>2021-12-05T09:52:47Z</time>
      </trkpt>
      <trkpt lat="44.82466" lon="5.11806">
        <ele>900.41</ele>
        <time>2021-12-05T09:52:51Z</time>
      </trkpt>
      <trkpt lat="44.82463" lon="5.11795">
        <ele>900.41</ele>
        <time>2021-12-05T09:52:59Z</time>
      </trkpt>
      <trkpt lat="44.82462" lon="5.11789">
        <ele>900.89</ele>
        <time>2021-12-05T09:53:03Z</time>
      </trkpt>
      <trkpt lat="44.82463" lon="5.11783">
        <ele>901.37</ele>
        <time>2021-12-05T09:53:08Z</time>
      </trkpt>
      <trkpt lat="44.82467" lon="5.11779">
        <ele>901.37</ele>
        <time>2021-12-05T09:53:12Z</time>
      </trkpt>
      <trkpt lat="44.8247" lon="5.11772">
        <ele>901.85</ele>
        <time>2021-12-05T09:53:16Z</time>
      </trkpt>
      <trkpt lat="44.82471" lon="5.11766">
        <ele>902.33</ele>
        <time>2021-12-05T09:53:20Z</time>
      </trkpt>
      <trkpt lat="44.82476" lon="5.11745">
        <ele>903.3</ele>
        <time>2021-12-05T09:53:35Z</time>
      </trkpt>
      <trkpt lat="44.82476" lon="5.11739">
        <ele>904.26</ele>
        <time>2021-12-05T09:53:39Z</time>
      </trkpt>
      <trkpt lat="44.82482" lon="5.11718">
        <ele>904.74</ele>
        <time>2021-12-05T09:53:52Z</time>
      </trkpt>
      <trkpt lat="44.82483" lon="5.11717">
        <ele>904.74</ele>
        <time>2021-12-05T09:53:53Z</time>
      </trkpt>
      <trkpt lat="44.82483" lon="5.11706">
        <ele>905.7</ele>
        <time>2021-12-05T09:54:00Z</time>
      </trkpt>
      <trkpt lat="44.82485" lon="5.11681">
        <ele>906.66</ele>
        <time>2021-12-05T09:54:13Z</time>
      </trkpt>
      <trkpt lat="44.82491" lon="5.11663">
        <ele>907.62</ele>
        <time>2021-12-05T09:54:27Z</time>
      </trkpt>
      <trkpt lat="44.82492" lon="5.1166">
        <ele>908.1</ele>
        <time>2021-12-05T09:54:29Z</time>
      </trkpt>
      <trkpt lat="44.82491" lon="5.11653">
        <ele>907.62</ele>
        <time>2021-12-05T09:54:32Z</time>
      </trkpt>
      <trkpt lat="44.82491" lon="5.11643">
        <ele>907.62</ele>
        <time>2021-12-05T09:54:38Z</time>
      </trkpt>
      <trkpt lat="44.82492" lon="5.11633">
        <ele>910.99</ele>
        <time>2021-12-05T09:54:44Z</time>
      </trkpt>
      <trkpt lat="44.82492" lon="5.11632">
        <ele>905.22</ele>
        <time>2021-12-05T09:54:45Z</time>
      </trkpt>
      <trkpt lat="44.82492" lon="5.11631">
        <ele>910.51</ele>
        <time>2021-12-05T09:54:46Z</time>
      </trkpt>
      <trkpt lat="44.82494" lon="5.11622">
        <ele>897.53</ele>
        <time>2021-12-05T09:54:52Z</time>
      </trkpt>
      <trkpt lat="44.82494" lon="5.11621">
        <ele>906.66</ele>
        <time>2021-12-05T09:54:53Z</time>
      </trkpt>
      <trkpt lat="44.82495" lon="5.11619">
        <ele>914.83</ele>
        <time>2021-12-05T09:54:54Z</time>
      </trkpt>
      <trkpt lat="44.82495" lon="5.11618">
        <ele>921.08</ele>
        <time>2021-12-05T09:54:55Z</time>
      </trkpt>
      <trkpt lat="44.82495" lon="5.11617">
        <ele>900.89</ele>
        <time>2021-12-05T09:54:56Z</time>
      </trkpt>
      <trkpt lat="44.82496" lon="5.11616">
        <ele>913.87</ele>
        <time>2021-12-05T09:54:57Z</time>
      </trkpt>
      <trkpt lat="44.82496" lon="5.11614">
        <ele>902.33</ele>
        <time>2021-12-05T09:54:58Z</time>
      </trkpt>
      <trkpt lat="44.82496" lon="5.11612">
        <ele>911.47</ele>
        <time>2021-12-05T09:54:59Z</time>
      </trkpt>
      <trkpt lat="44.82496" lon="5.11609">
        <ele>908.1</ele>
        <time>2021-12-05T09:55:01Z</time>
      </trkpt>
      <trkpt lat="44.82496" lon="5.11609">
        <ele>907.14</ele>
        <time>2021-12-05T09:55:02Z</time>
      </trkpt>
      <trkpt lat="44.82496" lon="5.11601">
        <ele>907.14</ele>
        <time>2021-12-05T09:55:06Z</time>
      </trkpt>
      <trkpt lat="44.82496" lon="5.11597">
        <ele>907.14</ele>
        <time>2021-12-05T09:55:08Z</time>
      </trkpt>
      <trkpt lat="44.82494" lon="5.11593">
        <ele>907.14</ele>
        <time>2021-12-05T09:55:12Z</time>
      </trkpt>
      <trkpt lat="44.82491" lon="5.11587">
        <ele>907.14</ele>
        <time>2021-12-05T09:55:16Z</time>
      </trkpt>
      <trkpt lat="44.82478" lon="5.11576">
        <ele>907.62</ele>
        <time>2021-12-05T09:55:27Z</time>
      </trkpt>
      <trkpt lat="44.82475" lon="5.11573">
        <ele>907.62</ele>
        <time>2021-12-05T09:55:32Z</time>
      </trkpt>
      <trkpt lat="44.82471" lon="5.11571">
        <ele>908.1</ele>
        <time>2021-12-05T09:55:35Z</time>
      </trkpt>
      <trkpt lat="44.82468" lon="5.11569">
        <ele>908.1</ele>
        <time>2021-12-05T09:55:37Z</time>
      </trkpt>
      <trkpt lat="44.82459" lon="5.1156">
        <ele>913.39</ele>
        <time>2021-12-05T09:55:45Z</time>
      </trkpt>
      <trkpt lat="44.82458" lon="5.11559">
        <ele>908.58</ele>
        <time>2021-12-05T09:55:46Z</time>
      </trkpt>
      <trkpt lat="44.82452" lon="5.11555">
        <ele>908.58</ele>
        <time>2021-12-05T09:55:51Z</time>
      </trkpt>
      <trkpt lat="44.82438" lon="5.11538">
        <ele>908.1</ele>
        <time>2021-12-05T09:56:06Z</time>
      </trkpt>
      <trkpt lat="44.82431" lon="5.11529">
        <ele>908.1</ele>
        <time>2021-12-05T09:56:13Z</time>
      </trkpt>
      <trkpt lat="44.82418" lon="5.11515">
        <ele>908.1</ele>
        <time>2021-12-05T09:56:27Z</time>
      </trkpt>
      <trkpt lat="44.8241" lon="5.11509">
        <ele>907.62</ele>
        <time>2021-12-05T09:56:39Z</time>
      </trkpt>
      <trkpt lat="44.82399" lon="5.11492">
        <ele>909.06</ele>
        <time>2021-12-05T09:56:53Z</time>
      </trkpt>
      <trkpt lat="44.82388" lon="5.11478">
        <ele>908.58</ele>
        <time>2021-12-05T09:57:04Z</time>
      </trkpt>
      <trkpt lat="44.82382" lon="5.1147">
        <ele>908.58</ele>
        <time>2021-12-05T09:57:12Z</time>
      </trkpt>
      <trkpt lat="44.82368" lon="5.11458">
        <ele>908.1</ele>
        <time>2021-12-05T09:57:24Z</time>
      </trkpt>
      <trkpt lat="44.82364" lon="5.11454">
        <ele>908.58</ele>
        <time>2021-12-05T09:57:28Z</time>
      </trkpt>
      <trkpt lat="44.82347" lon="5.11449">
        <ele>909.54</ele>
        <time>2021-12-05T09:57:41Z</time>
      </trkpt>
      <trkpt lat="44.82343" lon="5.11443">
        <ele>910.03</ele>
        <time>2021-12-05T09:57:45Z</time>
      </trkpt>
      <trkpt lat="44.82329" lon="5.11436">
        <ele>910.51</ele>
        <time>2021-12-05T09:57:57Z</time>
      </trkpt>
      <trkpt lat="44.82325" lon="5.11434">
        <ele>910.99</ele>
        <time>2021-12-05T09:58:00Z</time>
      </trkpt>
      <trkpt lat="44.82312" lon="5.11427">
        <ele>911.47</ele>
        <time>2021-12-05T09:58:12Z</time>
      </trkpt>
      <trkpt lat="44.82303" lon="5.11421">
        <ele>911.95</ele>
        <time>2021-12-05T09:58:20Z</time>
      </trkpt>
      <trkpt lat="44.82297" lon="5.11418">
        <ele>911.95</ele>
        <time>2021-12-05T09:58:25Z</time>
      </trkpt>
      <trkpt lat="44.82284" lon="5.11423">
        <ele>913.39</ele>
        <time>2021-12-05T09:58:35Z</time>
      </trkpt>
      <trkpt lat="44.82271" lon="5.11426">
        <ele>913.87</ele>
        <time>2021-12-05T09:58:47Z</time>
      </trkpt>
      <trkpt lat="44.82256" lon="5.11431">
        <ele>914.83</ele>
        <time>2021-12-05T09:59:01Z</time>
      </trkpt>
      <trkpt lat="44.82247" lon="5.11434">
        <ele>915.31</ele>
        <time>2021-12-05T09:59:14Z</time>
      </trkpt>
      <trkpt lat="44.8223" lon="5.11441">
        <ele>915.79</ele>
        <time>2021-12-05T09:59:27Z</time>
      </trkpt>
      <trkpt lat="44.82216" lon="5.11447">
        <ele>915.79</ele>
        <time>2021-12-05T09:59:39Z</time>
      </trkpt>
      <trkpt lat="44.82212" lon="5.11448">
        <ele>915.79</ele>
        <time>2021-12-05T09:59:43Z</time>
      </trkpt>
      <trkpt lat="44.82195" lon="5.11453">
        <ele>915.79</ele>
        <time>2021-12-05T09:59:57Z</time>
      </trkpt>
      <trkpt lat="44.82184" lon="5.11456">
        <ele>915.31</ele>
        <time>2021-12-05T10:00:06Z</time>
      </trkpt>
      <trkpt lat="44.82171" lon="5.11461">
        <ele>915.31</ele>
        <time>2021-12-05T10:00:15Z</time>
      </trkpt>
      <trkpt lat="44.82154" lon="5.11468">
        <ele>914.83</ele>
        <time>2021-12-05T10:00:29Z</time>
      </trkpt>
      <trkpt lat="44.82151" lon="5.1147">
        <ele>914.35</ele>
        <time>2021-12-05T10:00:32Z</time>
      </trkpt>
      <trkpt lat="44.82135" lon="5.11481">
        <ele>913.87</ele>
        <time>2021-12-05T10:00:47Z</time>
      </trkpt>
      <trkpt lat="44.82127" lon="5.11483">
        <ele>913.87</ele>
        <time>2021-12-05T10:00:53Z</time>
      </trkpt>
      <trkpt lat="44.82116" lon="5.11493">
        <ele>913.87</ele>
        <time>2021-12-05T10:01:04Z</time>
      </trkpt>
      <trkpt lat="44.82103" lon="5.1151">
        <ele>913.39</ele>
        <time>2021-12-05T10:01:17Z</time>
      </trkpt>
      <trkpt lat="44.82097" lon="5.11514">
        <ele>913.39</ele>
        <time>2021-12-05T10:01:21Z</time>
      </trkpt>
      <trkpt lat="44.82083" lon="5.1153">
        <ele>913.39</ele>
        <time>2021-12-05T10:01:35Z</time>
      </trkpt>
      <trkpt lat="44.82075" lon="5.11556">
        <ele>913.39</ele>
        <time>2021-12-05T10:01:49Z</time>
      </trkpt>
      <trkpt lat="44.82074" lon="5.11564">
        <ele>914.35</ele>
        <time>2021-12-05T10:01:54Z</time>
      </trkpt>
      <trkpt lat="44.82072" lon="5.11568">
        <ele>913.87</ele>
        <time>2021-12-05T10:01:57Z</time>
      </trkpt>
      <trkpt lat="44.82071" lon="5.11575">
        <ele>913.39</ele>
        <time>2021-12-05T10:02:03Z</time>
      </trkpt>
      <trkpt lat="44.82066" lon="5.11585">
        <ele>913.87</ele>
        <time>2021-12-05T10:02:11Z</time>
      </trkpt>
      <trkpt lat="44.82062" lon="5.11593">
        <ele>912.91</ele>
        <time>2021-12-05T10:02:17Z</time>
      </trkpt>
      <trkpt lat="44.82055" lon="5.11606">
        <ele>913.87</ele>
        <time>2021-12-05T10:02:28Z</time>
      </trkpt>
      <trkpt lat="44.8205" lon="5.11605">
        <ele>913.39</ele>
        <time>2021-12-05T10:02:33Z</time>
      </trkpt>
      <trkpt lat="44.82037" lon="5.11614">
        <ele>912.91</ele>
        <time>2021-12-05T10:02:46Z</time>
      </trkpt>
      <trkpt lat="44.82029" lon="5.11622">
        <ele>913.39</ele>
        <time>2021-12-05T10:02:53Z</time>
      </trkpt>
      <trkpt lat="44.82022" lon="5.11635">
        <ele>913.87</ele>
        <time>2021-12-05T10:03:01Z</time>
      </trkpt>
      <trkpt lat="44.82018" lon="5.11646">
        <ele>914.35</ele>
        <time>2021-12-05T10:03:11Z</time>
      </trkpt>
      <trkpt lat="44.82008" lon="5.1167">
        <ele>914.35</ele>
        <time>2021-12-05T10:03:26Z</time>
      </trkpt>
      <trkpt lat="44.81994" lon="5.11683">
        <ele>912.91</ele>
        <time>2021-12-05T10:03:42Z</time>
      </trkpt>
      <trkpt lat="44.81985" lon="5.11682">
        <ele>912.91</ele>
        <time>2021-12-05T10:03:50Z</time>
      </trkpt>
      <trkpt lat="44.81978" lon="5.1168">
        <ele>913.39</ele>
        <time>2021-12-05T10:03:55Z</time>
      </trkpt>
      <trkpt lat="44.8196" lon="5.11684">
        <ele>914.83</ele>
        <time>2021-12-05T10:04:12Z</time>
      </trkpt>
      <trkpt lat="44.81946" lon="5.11688">
        <ele>915.31</ele>
        <time>2021-12-05T10:04:24Z</time>
      </trkpt>
      <trkpt lat="44.81925" lon="5.11694">
        <ele>915.79</ele>
        <time>2021-12-05T10:04:39Z</time>
      </trkpt>
      <trkpt lat="44.81911" lon="5.11703">
        <ele>915.79</ele>
        <time>2021-12-05T10:04:51Z</time>
      </trkpt>
      <trkpt lat="44.8191" lon="5.11703">
        <ele>915.79</ele>
        <time>2021-12-05T10:04:52Z</time>
      </trkpt>
      <trkpt lat="44.81903" lon="5.11706">
        <ele>915.79</ele>
        <time>2021-12-05T10:04:56Z</time>
      </trkpt>
      <trkpt lat="44.8189" lon="5.11712">
        <ele>915.79</ele>
        <time>2021-12-05T10:05:05Z</time>
      </trkpt>
      <trkpt lat="44.81882" lon="5.11713">
        <ele>915.79</ele>
        <time>2021-12-05T10:05:13Z</time>
      </trkpt>
      <trkpt lat="44.81881" lon="5.11714">
        <ele>915.79</ele>
        <time>2021-12-05T10:05:15Z</time>
      </trkpt>
      <trkpt lat="44.81872" lon="5.11718">
        <ele>915.79</ele>
        <time>2021-12-05T10:05:24Z</time>
      </trkpt>
      <trkpt lat="44.8187" lon="5.11719">
        <ele>915.79</ele>
        <time>2021-12-05T10:05:26Z</time>
      </trkpt>
      <trkpt lat="44.81852" lon="5.11724">
        <ele>915.79</ele>
        <time>2021-12-05T10:05:39Z</time>
      </trkpt>
      <trkpt lat="44.81836" lon="5.11731">
        <ele>915.79</ele>
        <time>2021-12-05T10:05:51Z</time>
      </trkpt>
      <trkpt lat="44.81829" lon="5.11733">
        <ele>915.31</ele>
        <time>2021-12-05T10:05:59Z</time>
      </trkpt>
      <trkpt lat="44.81823" lon="5.11734">
        <ele>915.79</ele>
        <time>2021-12-05T10:06:04Z</time>
      </trkpt>
      <trkpt lat="44.81811" lon="5.11737">
        <ele>915.31</ele>
        <time>2021-12-05T10:06:17Z</time>
      </trkpt>
      <trkpt lat="44.81803" lon="5.11741">
        <ele>915.79</ele>
        <time>2021-12-05T10:06:31Z</time>
      </trkpt>
      <trkpt lat="44.81794" lon="5.11746">
        <ele>914.83</ele>
        <time>2021-12-05T10:06:41Z</time>
      </trkpt>
      <trkpt lat="44.8178" lon="5.11751">
        <ele>915.31</ele>
        <time>2021-12-05T10:06:52Z</time>
      </trkpt>
      <trkpt lat="44.81776" lon="5.11754">
        <ele>915.31</ele>
        <time>2021-12-05T10:06:56Z</time>
      </trkpt>
      <trkpt lat="44.81771" lon="5.11755">
        <ele>915.31</ele>
        <time>2021-12-05T10:07:00Z</time>
      </trkpt>
      <trkpt lat="44.81757" lon="5.11762">
        <ele>915.79</ele>
        <time>2021-12-05T10:07:10Z</time>
      </trkpt>
      <trkpt lat="44.81753" lon="5.11758">
        <ele>913.87</ele>
        <time>2021-12-05T10:07:22Z</time>
      </trkpt>
      <trkpt lat="44.81756" lon="5.11758">
        <ele>913.39</ele>
        <time>2021-12-05T10:07:34Z</time>
      </trkpt>
      <trkpt lat="44.81758" lon="5.11756">
        <ele>913.39</ele>
        <time>2021-12-05T10:07:36Z</time>
      </trkpt>
      <trkpt lat="44.81772" lon="5.11739">
        <ele>911.47</ele>
        <time>2021-12-05T10:07:51Z</time>
      </trkpt>
      <trkpt lat="44.81786" lon="5.1172">
        <ele>909.06</ele>
        <time>2021-12-05T10:08:05Z</time>
      </trkpt>
      <trkpt lat="44.81795" lon="5.11711">
        <ele>908.1</ele>
        <time>2021-12-05T10:08:12Z</time>
      </trkpt>
      <trkpt lat="44.81805" lon="5.11697">
        <ele>906.66</ele>
        <time>2021-12-05T10:08:23Z</time>
      </trkpt>
      <trkpt lat="44.81813" lon="5.11682">
        <ele>904.26</ele>
        <time>2021-12-05T10:08:35Z</time>
      </trkpt>
      <trkpt lat="44.81824" lon="5.11666">
        <ele>902.82</ele>
        <time>2021-12-05T10:08:48Z</time>
      </trkpt>
      <trkpt lat="44.81835" lon="5.1165">
        <ele>900.89</ele>
        <time>2021-12-05T10:09:01Z</time>
      </trkpt>
      <trkpt lat="44.81839" lon="5.11644">
        <ele>899.93</ele>
        <time>2021-12-05T10:09:06Z</time>
      </trkpt>
      <trkpt lat="44.81848" lon="5.1163">
        <ele>898.49</ele>
        <time>2021-12-05T10:09:18Z</time>
      </trkpt>
      <trkpt lat="44.81852" lon="5.11624">
        <ele>897.53</ele>
        <time>2021-12-05T10:09:25Z</time>
      </trkpt>
      <trkpt lat="44.81855" lon="5.11621">
        <ele>897.05</ele>
        <time>2021-12-05T10:09:27Z</time>
      </trkpt>
      <trkpt lat="44.81863" lon="5.11613">
        <ele>896.09</ele>
        <time>2021-12-05T10:09:35Z</time>
      </trkpt>
      <trkpt lat="44.81877" lon="5.11594">
        <ele>894.16</ele>
        <time>2021-12-05T10:09:50Z</time>
      </trkpt>
      <trkpt lat="44.81882" lon="5.11589">
        <ele>893.2</ele>
        <time>2021-12-05T10:09:55Z</time>
      </trkpt>
      <trkpt lat="44.81886" lon="5.11587">
        <ele>892.72</ele>
        <time>2021-12-05T10:09:58Z</time>
      </trkpt>
      <trkpt lat="44.81899" lon="5.11568">
        <ele>890.8</ele>
        <time>2021-12-05T10:10:12Z</time>
      </trkpt>
      <trkpt lat="44.81916" lon="5.11556">
        <ele>887.91</ele>
        <time>2021-12-05T10:10:29Z</time>
      </trkpt>
      <trkpt lat="44.81936" lon="5.11535">
        <ele>886.47</ele>
        <time>2021-12-05T10:10:45Z</time>
      </trkpt>
      <trkpt lat="44.81945" lon="5.11522">
        <ele>884.55</ele>
        <time>2021-12-05T10:10:56Z</time>
      </trkpt>
      <trkpt lat="44.81959" lon="5.11506">
        <ele>882.15</ele>
        <time>2021-12-05T10:11:14Z</time>
      </trkpt>
      <trkpt lat="44.81976" lon="5.11485">
        <ele>879.74</ele>
        <time>2021-12-05T10:11:32Z</time>
      </trkpt>
      <trkpt lat="44.81989" lon="5.1147">
        <ele>878.78</ele>
        <time>2021-12-05T10:11:44Z</time>
      </trkpt>
      <trkpt lat="44.81998" lon="5.11459">
        <ele>877.82</ele>
        <time>2021-12-05T10:11:55Z</time>
      </trkpt>
      <trkpt lat="44.82007" lon="5.11438">
        <ele>875.9</ele>
        <time>2021-12-05T10:12:08Z</time>
      </trkpt>
      <trkpt lat="44.82023" lon="5.11414">
        <ele>873.01</ele>
        <time>2021-12-05T10:12:27Z</time>
      </trkpt>
      <trkpt lat="44.82036" lon="5.11395">
        <ele>870.61</ele>
        <time>2021-12-05T10:12:39Z</time>
      </trkpt>
      <trkpt lat="44.82047" lon="5.11377">
        <ele>868.21</ele>
        <time>2021-12-05T10:12:53Z</time>
      </trkpt>
      <trkpt lat="44.82055" lon="5.11363">
        <ele>866.29</ele>
        <time>2021-12-05T10:13:04Z</time>
      </trkpt>
      <trkpt lat="44.82071" lon="5.11337">
        <ele>864.36</ele>
        <time>2021-12-05T10:13:18Z</time>
      </trkpt>
      <trkpt lat="44.82078" lon="5.11329">
        <ele>863.4</ele>
        <time>2021-12-05T10:13:26Z</time>
      </trkpt>
      <trkpt lat="44.82081" lon="5.11322">
        <ele>862.92</ele>
        <time>2021-12-05T10:13:41Z</time>
      </trkpt>
      <trkpt lat="44.82081" lon="5.1132">
        <ele>862.92</ele>
        <time>2021-12-05T10:13:42Z</time>
      </trkpt>
      <trkpt lat="44.82083" lon="5.11317">
        <ele>861.96</ele>
        <time>2021-12-05T10:13:45Z</time>
      </trkpt>
      <trkpt lat="44.82089" lon="5.11308">
        <ele>861.48</ele>
        <time>2021-12-05T10:13:52Z</time>
      </trkpt>
      <trkpt lat="44.82103" lon="5.11285">
        <ele>859.08</ele>
        <time>2021-12-05T10:14:07Z</time>
      </trkpt>
      <trkpt lat="44.82119" lon="5.11263">
        <ele>857.15</ele>
        <time>2021-12-05T10:14:20Z</time>
      </trkpt>
      <trkpt lat="44.82127" lon="5.11248">
        <ele>855.23</ele>
        <time>2021-12-05T10:14:32Z</time>
      </trkpt>
      <trkpt lat="44.82127" lon="5.11247">
        <ele>854.75</ele>
        <time>2021-12-05T10:14:44Z</time>
      </trkpt>
      <trkpt lat="44.82127" lon="5.11247">
        <ele>854.75</ele>
        <time>2021-12-05T10:15:10Z</time>
      </trkpt>
      <trkpt lat="44.82127" lon="5.11247">
        <ele>855.23</ele>
        <time>2021-12-05T10:15:34Z</time>
      </trkpt>
      <trkpt lat="44.82126" lon="5.11245">
        <ele>854.75</ele>
        <time>2021-12-05T10:15:50Z</time>
      </trkpt>
      <trkpt lat="44.82126" lon="5.11245">
        <ele>854.75</ele>
        <time>2021-12-05T10:16:16Z</time>
      </trkpt>
      <trkpt lat="44.82125" lon="5.11244">
        <ele>854.75</ele>
        <time>2021-12-05T10:16:44Z</time>
      </trkpt>
      <trkpt lat="44.82125" lon="5.11243">
        <ele>854.75</ele>
        <time>2021-12-05T10:17:04Z</time>
      </trkpt>
      <trkpt lat="44.82132" lon="5.11229">
        <ele>852.83</ele>
        <time>2021-12-05T10:17:15Z</time>
      </trkpt>
      <trkpt lat="44.82143" lon="5.11212">
        <ele>850.42</ele>
        <time>2021-12-05T10:17:28Z</time>
      </trkpt>
      <trkpt lat="44.82145" lon="5.11209">
        <ele>849.46</ele>
        <time>2021-12-05T10:17:32Z</time>
      </trkpt>
      <trkpt lat="44.8215" lon="5.11202">
        <ele>848.98</ele>
        <time>2021-12-05T10:17:37Z</time>
      </trkpt>
      <trkpt lat="44.8216" lon="5.11182">
        <ele>845.62</ele>
        <time>2021-12-05T10:17:52Z</time>
      </trkpt>
      <trkpt lat="44.82166" lon="5.11169">
        <ele>844.66</ele>
        <time>2021-12-05T10:18:00Z</time>
      </trkpt>
      <trkpt lat="44.82174" lon="5.11156">
        <ele>842.73</ele>
        <time>2021-12-05T10:18:13Z</time>
      </trkpt>
      <trkpt lat="44.8218" lon="5.11149">
        <ele>841.77</ele>
        <time>2021-12-05T10:18:20Z</time>
      </trkpt>
      <trkpt lat="44.82188" lon="5.11139">
        <ele>841.29</ele>
        <time>2021-12-05T10:18:28Z</time>
      </trkpt>
      <trkpt lat="44.82195" lon="5.11138">
        <ele>841.29</ele>
        <time>2021-12-05T10:18:33Z</time>
      </trkpt>
      <trkpt lat="44.82207" lon="5.11129">
        <ele>841.29</ele>
        <time>2021-12-05T10:18:48Z</time>
      </trkpt>
      <trkpt lat="44.82224" lon="5.11124">
        <ele>841.77</ele>
        <time>2021-12-05T10:19:05Z</time>
      </trkpt>
      <trkpt lat="44.82233" lon="5.11117">
        <ele>842.25</ele>
        <time>2021-12-05T10:19:13Z</time>
      </trkpt>
      <trkpt lat="44.82242" lon="5.11109">
        <ele>841.29</ele>
        <time>2021-12-05T10:19:21Z</time>
      </trkpt>
      <trkpt lat="44.82269" lon="5.1108">
        <ele>839.85</ele>
        <time>2021-12-05T10:19:38Z</time>
      </trkpt>
      <trkpt lat="44.8227" lon="5.11078">
        <ele>839.85</ele>
        <time>2021-12-05T10:19:39Z</time>
      </trkpt>
      <trkpt lat="44.82277" lon="5.11063">
        <ele>838.89</ele>
        <time>2021-12-05T10:19:46Z</time>
      </trkpt>
      <trkpt lat="44.82288" lon="5.11054">
        <ele>839.37</ele>
        <time>2021-12-05T10:20:00Z</time>
      </trkpt>
      <trkpt lat="44.82294" lon="5.11047">
        <ele>838.89</ele>
        <time>2021-12-05T10:20:07Z</time>
      </trkpt>
      <trkpt lat="44.82295" lon="5.11045">
        <ele>838.41</ele>
        <time>2021-12-05T10:20:09Z</time>
      </trkpt>
      <trkpt lat="44.82303" lon="5.1103">
        <ele>837.93</ele>
        <time>2021-12-05T10:20:16Z</time>
      </trkpt>
      <trkpt lat="44.82306" lon="5.11022">
        <ele>836.96</ele>
        <time>2021-12-05T10:20:22Z</time>
      </trkpt>
      <trkpt lat="44.82307" lon="5.11019">
        <ele>837.45</ele>
        <time>2021-12-05T10:20:24Z</time>
      </trkpt>
      <trkpt lat="44.8231" lon="5.11007">
        <ele>836.96</ele>
        <time>2021-12-05T10:20:36Z</time>
      </trkpt>
      <trkpt lat="44.8231" lon="5.11007">
        <ele>836.48</ele>
        <time>2021-12-05T10:20:56Z</time>
      </trkpt>
    </trkseg>
  </trk>
</gpx>